Time,TemperatureF,DewpointF,PressureIn,WindDirection,WindDirectionDegrees,WindSpeedMPH,WindSpeedGustMPH,Humidity,HourlyPrecipIn,Conditions,Clouds,dailyrainin,SoftwareType,DateUTC
2015-08-04 00:00:00,79.2,73.9,29.92,SW,223,0.0,0.0,84,0.00,,---,0.00,VWS V13.01,2015-08-04 05:00:00,
2015-08-04 00:01:00,79.2,73.9,29.92,SW,223,0.0,0.0,84,0.00,,---,0.00,VWS V13.01,2015-08-04 05:01:00,
2015-08-04 00:02:00,79.2,73.9,29.92,SW,223,0.0,0.0,84,0.00,,---,0.00,VWS V13.01,2015-08-04 05:02:00,
2015-08-04 00:03:00,79.2,73.9,29.92,SW,223,0.0,0.0,84,0.00,,---,0.00,VWS V13.01,2015-08-04 05:03:00,
2015-08-04 00:04:00,79.1,73.8,29.92,SW,223,0.0,0.0,84,0.00,,---,0.00,VWS V13.01,2015-08-04 05:04:00,
2015-08-04 00:05:00,79.1,73.8,29.92,SW,223,0.0,0.0,84,0.00,,---,0.00,VWS V13.01,2015-08-04 05:05:00,
2015-08-04 00:06:00,79.1,73.8,29.92,SW,223,0.0,0.0,84,0.00,,---,0.00,VWS V13.01,2015-08-04 05:06:00,
2015-08-04 00:07:00,79.1,73.8,29.92,SW,223,0.0,0.0,84,0.00,,---,0.00,VWS V13.01,2015-08-04 05:07:00,
2015-08-04 00:08:00,79.0,73.8,29.92,SW,223,0.0,0.0,84,0.00,,---,0.00,VWS V13.01,2015-08-04 05:08:00,
2015-08-04 00:09:00,79.0,73.8,29.92,SW,223,0.0,0.0,84,0.00,,---,0.00,VWS V13.01,2015-08-04 05:09:00,
2015-08-04 00:10:00,79.0,73.8,29.92,SW,223,0.0,0.0,84,0.00,,---,0.00,VWS V13.01,2015-08-04 05:10:00,
2015-08-04 00:11:00,79.0,73.8,29.92,SW,223,0.0,1.0,84,0.00,,---,0.00,VWS V13.01,2015-08-04 05:11:00,
2015-08-04 00:12:00,79.0,73.8,29.92,SW,223,0.0,1.0,84,0.00,,---,0.00,VWS V13.01,2015-08-04 05:12:00,
2015-08-04 00:13:00,79.0,73.8,29.92,SW,223,0.0,1.0,84,0.00,,---,0.00,VWS V13.01,2015-08-04 05:13:00,
2015-08-04 00:14:00,78.9,73.7,29.92,SW,223,0.0,1.0,84,0.00,,---,0.00,VWS V13.01,2015-08-04 05:14:00,
2015-08-04 00:15:00,78.9,73.7,29.92,SW,223,0.0,1.0,84,0.00,,---,0.00,VWS V13.01,2015-08-04 05:15:00,
2015-08-04 00:16:00,78.9,73.7,29.92,SW,223,0.0,1.0,84,0.00,,---,0.00,VWS V13.01,2015-08-04 05:16:00,
2015-08-04 00:17:00,78.8,73.6,29.92,SW,223,0.0,1.0,84,0.00,,---,0.00,VWS V13.01,2015-08-04 05:17:00,
2015-08-04 00:18:00,78.8,73.6,29.92,SW,223,0.0,1.0,84,0.00,,---,0.00,VWS V13.01,2015-08-04 05:18:00,
2015-08-04 00:19:00,78.8,73.6,29.92,WSW,246,0.0,1.0,84,0.00,,---,0.00,VWS V13.01,2015-08-04 05:19:00,
2015-08-04 00:20:00,78.7,73.5,29.92,WSW,246,0.0,1.0,84,0.00,,---,0.00,VWS V13.01,2015-08-04 05:20:00,
2015-08-04 00:21:00,78.7,73.5,29.92,WSW,246,0.0,1.0,84,0.00,,---,0.00,VWS V13.01,2015-08-04 05:21:00,
2015-08-04 00:22:00,78.7,73.5,29.92,WSW,246,0.0,1.0,84,0.00,,---,0.00,VWS V13.01,2015-08-04 05:22:00,
2015-08-04 00:23:00,78.7,73.5,29.92,WSW,246,0.0,1.0,84,0.00,,---,0.00,VWS V13.01,2015-08-04 05:23:00,
2015-08-04 00:24:00,78.7,73.5,29.92,WSW,246,0.0,1.0,84,0.00,,---,0.00,VWS V13.01,2015-08-04 05:24:00,
2015-08-04 00:25:00,78.7,73.8,29.92,WSW,246,0.0,1.0,85,0.00,,---,0.00,VWS V13.01,2015-08-04 05:25:00,
2015-08-04 00:26:00,78.6,73.7,29.92,WSW,246,0.0,1.0,85,0.00,,---,0.00,VWS V13.01,2015-08-04 05:26:00,
2015-08-04 00:27:00,78.6,73.7,29.92,WSW,246,0.0,1.0,85,0.00,,---,0.00,VWS V13.01,2015-08-04 05:27:00,
2015-08-04 00:28:00,78.6,73.7,29.92,WSW,246,0.0,1.0,85,0.00,,---,0.00,VWS V13.01,2015-08-04 05:28:00,
2015-08-04 00:29:00,78.6,73.7,29.92,WSW,246,0.0,1.0,85,0.00,,---,0.00,VWS V13.01,2015-08-04 05:29:00,
2015-08-04 00:30:00,78.5,73.6,29.92,WSW,246,0.0,1.0,85,0.00,,---,0.00,VWS V13.01,2015-08-04 05:30:00,
2015-08-04 00:31:00,78.5,73.6,29.92,WSW,246,0.0,0.0,85,0.00,,---,0.00,VWS V13.01,2015-08-04 05:31:00,
2015-08-04 00:32:00,78.5,73.6,29.92,WSW,246,0.0,0.0,85,0.00,,---,0.00,VWS V13.01,2015-08-04 05:32:00,
2015-08-04 00:33:00,78.5,73.6,29.92,WSW,246,0.0,0.0,85,0.00,,---,0.00,VWS V13.01,2015-08-04 05:33:00,
2015-08-04 00:34:00,78.5,73.6,29.92,WSW,246,0.0,0.0,85,0.00,,---,0.00,VWS V13.01,2015-08-04 05:34:00,
2015-08-04 00:35:00,78.5,73.6,29.92,WSW,246,0.0,0.0,85,0.00,,---,0.00,VWS V13.01,2015-08-04 05:35:00,
2015-08-04 00:36:00,78.5,73.6,29.92,WSW,246,0.0,0.0,85,0.00,,---,0.00,VWS V13.01,2015-08-04 05:36:00,
2015-08-04 00:37:00,78.5,73.6,29.92,WSW,246,0.0,0.0,85,0.00,,---,0.00,VWS V13.01,2015-08-04 05:37:00,
2015-08-04 00:38:00,78.4,73.5,29.92,WSW,246,0.0,1.0,85,0.00,,---,0.00,VWS V13.01,2015-08-04 05:38:00,
2015-08-04 00:39:00,78.4,73.5,29.92,WSW,246,0.0,1.0,85,0.00,,---,0.00,VWS V13.01,2015-08-04 05:39:00,
2015-08-04 00:40:00,78.4,73.5,29.92,WSW,246,0.0,1.0,85,0.00,,---,0.00,VWS V13.01,2015-08-04 05:40:00,
2015-08-04 00:41:00,78.4,73.5,29.92,WSW,246,0.0,0.0,85,0.00,,---,0.00,VWS V13.01,2015-08-04 05:41:00,
2015-08-04 00:42:00,78.4,73.5,29.92,WSW,246,0.0,0.0,85,0.00,,---,0.00,VWS V13.01,2015-08-04 05:42:00,
2015-08-04 00:43:00,79.3,74.1,29.92,SW,223,0.0,0.0,84,0.00,,---,0.00,VWS V13.01,2015-08-04 05:43:00,
2015-08-04 00:44:00,78.3,73.4,29.92,WSW,246,0.0,0.0,85,0.00,,---,0.00,VWS V13.01,2015-08-04 05:44:00,
2015-08-04 00:45:00,78.3,73.4,29.92,WSW,246,0.0,0.0,85,0.00,,---,0.00,VWS V13.01,2015-08-04 05:45:00,
2015-08-04 00:46:00,78.3,73.4,29.92,WSW,246,0.0,0.0,85,0.00,,---,0.00,VWS V13.01,2015-08-04 05:46:00,
2015-08-04 00:47:00,78.3,73.4,29.92,WSW,246,0.0,0.0,85,0.00,,---,0.00,VWS V13.01,2015-08-04 05:47:00,
2015-08-04 00:48:00,78.2,73.3,29.92,WSW,246,0.0,0.0,85,0.00,,---,0.00,VWS V13.01,2015-08-04 05:48:00,
2015-08-04 00:49:00,78.2,73.3,29.92,WSW,246,0.0,0.0,85,0.00,,---,0.00,VWS V13.01,2015-08-04 05:49:00,
2015-08-04 00:50:00,78.2,73.3,29.92,WSW,246,0.0,0.0,85,0.00,,---,0.00,VWS V13.01,2015-08-04 05:50:00,
2015-08-04 00:51:00,78.2,73.3,29.92,WSW,246,0.0,0.0,85,0.00,,---,0.00,VWS V13.01,2015-08-04 05:51:00,
2015-08-04 00:52:00,78.1,73.2,29.92,WSW,246,0.0,0.0,85,0.00,,---,0.00,VWS V13.01,2015-08-04 05:52:00,
2015-08-04 00:53:00,78.2,73.3,29.92,WSW,246,0.0,0.0,85,0.00,,---,0.00,VWS V13.01,2015-08-04 05:53:00,
2015-08-04 00:54:00,78.1,73.2,29.92,WSW,246,0.0,0.0,85,0.00,,---,0.00,VWS V13.01,2015-08-04 05:54:00,
2015-08-04 00:55:00,78.1,73.2,29.92,WSW,246,0.0,1.0,85,0.00,,---,0.00,VWS V13.01,2015-08-04 05:55:00,
2015-08-04 00:56:00,79.0,73.8,29.92,SW,223,0.0,0.0,84,0.00,,---,0.00,VWS V13.01,2015-08-04 05:56:00,
2015-08-04 00:57:00,78.1,73.2,29.92,WSW,246,0.0,1.0,85,0.00,,---,0.00,VWS V13.01,2015-08-04 05:57:00,
2015-08-04 00:58:00,78.0,73.1,29.92,WSW,246,0.0,1.0,85,0.00,,---,0.00,VWS V13.01,2015-08-04 05:58:00,
2015-08-04 00:59:00,78.0,73.1,29.92,WSW,246,0.0,1.0,85,0.00,,---,0.00,VWS V13.01,2015-08-04 05:59:00,
2015-08-04 01:00:00,78.0,73.1,29.92,WSW,246,0.0,1.0,85,0.00,,---,0.00,VWS V13.01,2015-08-04 06:00:00,
2015-08-04 01:01:00,78.0,73.1,29.92,WSW,246,0.0,0.0,85,0.00,,---,0.00,VWS V13.01,2015-08-04 06:01:00,
2015-08-04 01:02:00,78.0,73.1,29.92,WSW,246,0.0,0.0,85,0.00,,---,0.00,VWS V13.01,2015-08-04 06:02:00,
2015-08-04 01:03:00,78.0,73.1,29.92,WSW,246,0.0,0.0,85,0.00,,---,0.00,VWS V13.01,2015-08-04 06:03:00,
2015-08-04 01:04:00,78.0,73.1,29.92,WSW,246,0.0,0.0,85,0.00,,---,0.00,VWS V13.01,2015-08-04 06:04:00,
2015-08-04 01:05:00,78.0,73.1,29.92,WSW,246,0.0,0.0,85,0.00,,---,0.00,VWS V13.01,2015-08-04 06:05:00,
2015-08-04 01:06:00,77.9,73.4,29.92,WSW,246,0.0,0.0,86,0.00,,---,0.00,VWS V13.01,2015-08-04 06:06:00,
2015-08-04 01:07:00,77.9,73.4,29.92,WSW,246,0.0,0.0,86,0.00,,---,0.00,VWS V13.01,2015-08-04 06:07:00,
2015-08-04 01:08:00,77.9,73.4,29.92,WSW,246,0.0,0.0,86,0.00,,---,0.00,VWS V13.01,2015-08-04 06:08:00,
2015-08-04 01:09:00,77.9,73.4,29.92,WSW,246,0.0,0.0,86,0.00,,---,0.00,VWS V13.01,2015-08-04 06:09:00,
2015-08-04 01:10:00,77.9,73.4,29.92,WSW,246,0.0,0.0,86,0.00,,---,0.00,VWS V13.01,2015-08-04 06:10:00,
2015-08-04 01:11:00,77.9,73.4,29.92,WSW,246,0.0,0.0,86,0.00,,---,0.00,VWS V13.01,2015-08-04 06:11:00,
2015-08-04 01:12:00,77.9,73.4,29.92,WSW,246,0.0,0.0,86,0.00,,---,0.00,VWS V13.01,2015-08-04 06:12:00,
2015-08-04 01:13:00,77.9,73.4,29.92,WSW,246,0.0,0.0,86,0.00,,---,0.00,VWS V13.01,2015-08-04 06:13:00,
2015-08-04 01:14:00,77.9,73.4,29.92,WSW,246,0.0,0.0,86,0.00,,---,0.00,VWS V13.01,2015-08-04 06:14:00,
2015-08-04 01:15:00,78.6,73.7,29.92,WSW,246,0.0,1.0,85,0.00,,---,0.00,VWS V13.01,2015-08-04 06:15:00,
2015-08-04 01:16:00,77.9,73.4,29.92,WSW,246,0.0,0.0,86,0.00,,---,0.00,VWS V13.01,2015-08-04 06:16:00,
2015-08-04 01:17:00,77.8,73.3,29.92,WSW,246,0.0,0.0,86,0.00,,---,0.00,VWS V13.01,2015-08-04 06:17:00,
2015-08-04 01:18:00,77.8,73.3,29.92,WSW,246,0.0,0.0,86,0.00,,---,0.00,VWS V13.01,2015-08-04 06:18:00,
2015-08-04 01:19:00,77.8,73.3,29.93,WSW,246,0.0,0.0,86,0.00,,---,0.00,VWS V13.01,2015-08-04 06:19:00,
2015-08-04 01:20:00,77.8,73.3,29.93,WSW,246,0.0,0.0,86,0.00,,---,0.00,VWS V13.01,2015-08-04 06:20:00,
2015-08-04 01:21:00,77.8,73.3,29.93,WSW,246,0.0,0.0,86,0.00,,---,0.00,VWS V13.01,2015-08-04 06:21:00,
2015-08-04 01:22:00,77.8,73.3,29.93,WSW,246,0.0,0.0,86,0.00,,---,0.00,VWS V13.01,2015-08-04 06:22:00,
2015-08-04 01:23:00,77.8,73.3,29.92,WSW,246,0.0,0.0,86,0.00,,---,0.00,VWS V13.01,2015-08-04 06:23:00,
2015-08-04 01:24:00,77.8,73.3,29.92,WSW,246,0.0,0.0,86,0.00,,---,0.00,VWS V13.01,2015-08-04 06:24:00,
2015-08-04 01:25:00,77.8,73.3,29.92,WSW,246,0.0,0.0,86,0.00,,---,0.00,VWS V13.01,2015-08-04 06:25:00,
2015-08-04 01:26:00,77.8,73.3,29.92,WSW,246,0.0,0.0,86,0.00,,---,0.00,VWS V13.01,2015-08-04 06:26:00,
2015-08-04 01:27:00,77.7,73.2,29.92,WSW,246,0.0,0.0,86,0.00,,---,0.00,VWS V13.01,2015-08-04 06:27:00,
2015-08-04 01:28:00,77.7,73.2,29.93,WSW,246,0.0,0.0,86,0.00,,---,0.00,VWS V13.01,2015-08-04 06:28:00,
2015-08-04 01:29:00,77.7,73.2,29.93,WSW,246,0.0,0.0,86,0.00,,---,0.00,VWS V13.01,2015-08-04 06:29:00,
2015-08-04 01:30:00,77.7,73.2,29.93,WSW,246,0.0,0.0,86,0.00,,---,0.00,VWS V13.01,2015-08-04 06:30:00,
2015-08-04 01:31:00,77.7,73.2,29.93,WSW,246,0.0,0.0,86,0.00,,---,0.00,VWS V13.01,2015-08-04 06:31:00,
2015-08-04 01:32:00,77.7,73.2,29.93,WSW,246,0.0,0.0,86,0.00,,---,0.00,VWS V13.01,2015-08-04 06:32:00,
2015-08-04 01:33:00,77.6,73.1,29.93,WSW,246,0.0,0.0,86,0.00,,---,0.00,VWS V13.01,2015-08-04 06:33:00,
2015-08-04 01:34:00,77.6,73.1,29.93,WSW,246,0.0,0.0,86,0.00,,---,0.00,VWS V13.01,2015-08-04 06:34:00,
2015-08-04 01:35:00,77.6,73.1,29.93,WSW,246,0.0,0.0,86,0.00,,---,0.00,VWS V13.01,2015-08-04 06:35:00,
2015-08-04 01:36:00,77.6,73.1,29.93,WSW,246,0.0,0.0,86,0.00,,---,0.00,VWS V13.01,2015-08-04 06:36:00,
2015-08-04 01:37:00,78.2,73.3,29.92,WSW,246,0.0,0.0,85,0.00,,---,0.00,VWS V13.01,2015-08-04 06:37:00,
2015-08-04 01:38:00,77.6,73.1,29.93,WSW,246,0.0,0.0,86,0.00,,---,0.00,VWS V13.01,2015-08-04 06:38:00,
2015-08-04 01:39:00,77.5,73.0,29.93,WSW,246,0.0,0.0,86,0.00,,---,0.00,VWS V13.01,2015-08-04 06:39:00,
2015-08-04 01:40:00,77.5,73.0,29.93,WSW,246,0.0,0.0,86,0.00,,---,0.00,VWS V13.01,2015-08-04 06:40:00,
2015-08-04 01:41:00,77.5,73.0,29.93,WSW,246,0.0,0.0,86,0.00,,---,0.00,VWS V13.01,2015-08-04 06:41:00,
2015-08-04 01:42:00,77.5,73.0,29.93,WSW,246,0.0,0.0,86,0.00,,---,0.00,VWS V13.01,2015-08-04 06:42:00,
2015-08-04 01:43:00,77.5,73.0,29.93,WSW,246,0.0,0.0,86,0.00,,---,0.00,VWS V13.01,2015-08-04 06:43:00,
2015-08-04 01:44:00,77.5,73.0,29.93,WSW,246,0.0,0.0,86,0.00,,---,0.00,VWS V13.01,2015-08-04 06:44:00,
2015-08-04 01:45:00,77.5,73.0,29.93,WSW,246,0.0,0.0,86,0.00,,---,0.00,VWS V13.01,2015-08-04 06:45:00,
2015-08-04 01:46:00,77.5,73.0,29.93,WSW,246,0.0,0.0,86,0.00,,---,0.00,VWS V13.01,2015-08-04 06:46:00,
2015-08-04 01:47:00,77.5,73.0,29.92,WSW,246,0.0,0.0,86,0.00,,---,0.00,VWS V13.01,2015-08-04 06:47:00,
2015-08-04 01:48:00,77.5,73.0,29.92,WSW,246,0.0,0.0,86,0.00,,---,0.00,VWS V13.01,2015-08-04 06:48:00,
2015-08-04 01:49:00,77.5,73.3,29.92,WSW,246,0.0,0.0,87,0.00,,---,0.00,VWS V13.01,2015-08-04 06:49:00,
2015-08-04 01:50:00,77.5,73.3,29.92,WSW,246,0.0,0.0,87,0.00,,---,0.00,VWS V13.01,2015-08-04 06:50:00,
2015-08-04 01:51:00,77.4,73.2,29.92,WSW,246,0.0,0.0,87,0.00,,---,0.00,VWS V13.01,2015-08-04 06:51:00,
2015-08-04 01:52:00,77.4,73.2,29.92,WSW,246,0.0,0.0,87,0.00,,---,0.00,VWS V13.01,2015-08-04 06:52:00,
2015-08-04 01:53:00,77.4,73.2,29.92,WSW,246,0.0,0.0,87,0.00,,---,0.00,VWS V13.01,2015-08-04 06:53:00,
2015-08-04 01:54:00,77.4,73.2,29.92,WSW,246,0.0,0.0,87,0.00,,---,0.00,VWS V13.01,2015-08-04 06:54:00,
2015-08-04 01:55:00,77.4,73.2,29.92,WSW,246,0.0,0.0,87,0.00,,---,0.00,VWS V13.01,2015-08-04 06:55:00,
2015-08-04 01:56:00,77.4,73.2,29.92,WSW,246,0.0,0.0,87,0.00,,---,0.00,VWS V13.01,2015-08-04 06:56:00,
2015-08-04 01:57:00,77.4,73.2,29.92,WSW,246,0.0,0.0,87,0.00,,---,0.00,VWS V13.01,2015-08-04 06:57:00,
2015-08-04 01:58:00,77.4,73.2,29.92,WSW,246,0.0,0.0,87,0.00,,---,0.00,VWS V13.01,2015-08-04 06:58:00,
2015-08-04 01:59:00,77.4,73.2,29.92,WSW,246,0.0,0.0,87,0.00,,---,0.00,VWS V13.01,2015-08-04 06:59:00,
2015-08-04 02:00:00,77.4,73.2,29.92,WSW,246,0.0,0.0,87,0.00,,---,0.00,VWS V13.01,2015-08-04 07:00:00,
2015-08-04 02:01:00,77.4,73.2,29.92,WSW,246,0.0,0.0,87,0.00,,---,0.00,VWS V13.01,2015-08-04 07:01:00,
2015-08-04 02:02:00,77.3,73.1,29.92,WSW,246,0.0,0.0,87,0.00,,---,0.00,VWS V13.01,2015-08-04 07:02:00,
2015-08-04 02:03:00,77.3,73.1,29.92,WSW,246,0.0,0.0,87,0.00,,---,0.00,VWS V13.01,2015-08-04 07:03:00,
2015-08-04 02:04:00,77.3,73.1,29.93,WSW,246,0.0,0.0,87,0.00,,---,0.00,VWS V13.01,2015-08-04 07:04:00,
2015-08-04 02:05:00,77.3,73.1,29.93,WSW,246,0.0,0.0,87,0.00,,---,0.00,VWS V13.01,2015-08-04 07:05:00,
2015-08-04 02:06:00,77.3,73.1,29.93,WSW,246,0.0,0.0,87,0.00,,---,0.00,VWS V13.01,2015-08-04 07:06:00,
2015-08-04 02:07:00,77.3,73.1,29.92,WSW,246,0.0,0.0,87,0.00,,---,0.00,VWS V13.01,2015-08-04 07:07:00,
2015-08-04 02:08:00,77.3,73.1,29.92,WSW,246,0.0,0.0,87,0.00,,---,0.00,VWS V13.01,2015-08-04 07:08:00,
2015-08-04 02:09:00,77.3,73.1,29.92,WSW,246,0.0,0.0,87,0.00,,---,0.00,VWS V13.01,2015-08-04 07:09:00,
2015-08-04 02:10:00,77.3,73.1,29.92,WSW,246,0.0,0.0,87,0.00,,---,0.00,VWS V13.01,2015-08-04 07:10:00,
2015-08-04 02:11:00,77.3,73.1,29.93,WSW,246,0.0,0.0,87,0.00,,---,0.00,VWS V13.01,2015-08-04 07:11:00,
2015-08-04 02:12:00,77.3,73.1,29.93,WSW,246,0.0,0.0,87,0.00,,---,0.00,VWS V13.01,2015-08-04 07:12:00,
2015-08-04 02:13:00,77.3,73.1,29.92,WSW,246,0.0,0.0,87,0.00,,---,0.00,VWS V13.01,2015-08-04 07:13:00,
2015-08-04 02:14:00,77.2,73.0,29.93,WSW,246,0.0,0.0,87,0.00,,---,0.00,VWS V13.01,2015-08-04 07:14:00,
2015-08-04 02:15:00,77.2,73.0,29.92,WSW,246,0.0,0.0,87,0.00,,---,0.00,VWS V13.01,2015-08-04 07:15:00,
2015-08-04 02:16:00,77.2,73.0,29.93,WSW,246,0.0,0.0,87,0.00,,---,0.00,VWS V13.01,2015-08-04 07:16:00,
2015-08-04 02:17:00,77.2,73.0,29.93,WSW,246,0.0,0.0,87,0.00,,---,0.00,VWS V13.01,2015-08-04 07:17:00,
2015-08-04 02:18:00,77.2,73.0,29.93,WSW,246,0.0,0.0,87,0.00,,---,0.00,VWS V13.01,2015-08-04 07:18:00,
2015-08-04 02:19:00,77.2,73.0,29.92,WSW,246,0.0,0.0,87,0.00,,---,0.00,VWS V13.01,2015-08-04 07:19:00,
2015-08-04 02:20:00,77.2,73.0,29.92,WSW,246,0.0,0.0,87,0.00,,---,0.00,VWS V13.01,2015-08-04 07:20:00,
2015-08-04 02:21:00,77.1,72.9,29.92,WSW,246,0.0,0.0,87,0.00,,---,0.00,VWS V13.01,2015-08-04 07:21:00,
2015-08-04 02:22:00,77.1,72.9,29.93,WSW,246,0.0,0.0,87,0.00,,---,0.00,VWS V13.01,2015-08-04 07:22:00,
2015-08-04 02:23:00,77.1,72.9,29.93,WSW,246,0.0,0.0,87,0.00,,---,0.00,VWS V13.01,2015-08-04 07:23:00,
2015-08-04 02:24:00,77.1,72.9,29.93,WSW,246,0.0,0.0,87,0.00,,---,0.00,VWS V13.01,2015-08-04 07:24:00,
2015-08-04 02:25:00,77.1,72.9,29.93,WSW,246,0.0,0.0,87,0.00,,---,0.00,VWS V13.01,2015-08-04 07:25:00,
2015-08-04 02:26:00,77.1,72.9,29.93,WSW,246,0.0,0.0,87,0.00,,---,0.00,VWS V13.01,2015-08-04 07:26:00,
2015-08-04 02:27:00,77.1,72.9,29.93,WSW,246,0.0,0.0,87,0.00,,---,0.00,VWS V13.01,2015-08-04 07:27:00,
2015-08-04 02:28:00,77.0,72.8,29.92,WSW,246,0.0,0.0,87,0.00,,---,0.00,VWS V13.01,2015-08-04 07:28:00,
2015-08-04 02:29:00,77.0,72.8,29.93,WSW,246,0.0,0.0,87,0.00,,---,0.00,VWS V13.01,2015-08-04 07:29:00,
2015-08-04 02:30:00,77.0,72.8,29.92,WSW,246,0.0,0.0,87,0.00,,---,0.00,VWS V13.01,2015-08-04 07:30:00,
2015-08-04 02:31:00,77.0,72.8,29.92,WSW,246,0.0,0.0,87,0.00,,---,0.00,VWS V13.01,2015-08-04 07:31:00,
2015-08-04 02:32:00,77.0,72.8,29.93,WSW,246,0.0,0.0,87,0.00,,---,0.00,VWS V13.01,2015-08-04 07:32:00,
2015-08-04 02:33:00,77.0,72.8,29.92,WSW,246,0.0,0.0,87,0.00,,---,0.00,VWS V13.01,2015-08-04 07:33:00,
2015-08-04 02:34:00,76.9,72.7,29.93,WSW,246,0.0,0.0,87,0.00,,---,0.00,VWS V13.01,2015-08-04 07:34:00,
2015-08-04 02:35:00,76.9,72.7,29.92,WSW,246,0.0,0.0,87,0.00,,---,0.00,VWS V13.01,2015-08-04 07:35:00,
2015-08-04 02:36:00,76.9,72.7,29.93,WSW,246,0.0,0.0,87,0.00,,---,0.00,VWS V13.01,2015-08-04 07:36:00,
2015-08-04 02:37:00,76.9,72.7,29.92,WSW,246,0.0,0.0,87,0.00,,---,0.00,VWS V13.01,2015-08-04 07:37:00,
2015-08-04 02:38:00,76.9,72.7,29.93,WSW,246,0.0,0.0,87,0.00,,---,0.00,VWS V13.01,2015-08-04 07:38:00,
2015-08-04 02:39:00,76.9,72.7,29.92,WSW,246,0.0,0.0,87,0.00,,---,0.00,VWS V13.01,2015-08-04 07:39:00,
2015-08-04 02:40:00,76.9,72.7,29.93,WSW,246,0.0,0.0,87,0.00,,---,0.00,VWS V13.01,2015-08-04 07:40:00,
2015-08-04 02:41:00,76.9,72.7,29.93,WSW,246,0.0,0.0,87,0.00,,---,0.00,VWS V13.01,2015-08-04 07:41:00,
2015-08-04 02:42:00,76.9,72.7,29.93,WSW,246,0.0,0.0,87,0.00,,---,0.00,VWS V13.01,2015-08-04 07:42:00,
2015-08-04 02:43:00,76.9,72.7,29.93,WSW,246,0.0,0.0,87,0.00,,---,0.00,VWS V13.01,2015-08-04 07:43:00,
2015-08-04 02:44:00,76.8,72.6,29.92,WSW,246,0.0,0.0,87,0.00,,---,0.00,VWS V13.01,2015-08-04 07:44:00,
2015-08-04 02:45:00,76.8,72.6,29.92,WSW,246,0.0,0.0,87,0.00,,---,0.00,VWS V13.01,2015-08-04 07:45:00,
2015-08-04 02:46:00,76.8,72.6,29.93,WSW,246,0.0,0.0,87,0.00,,---,0.00,VWS V13.01,2015-08-04 07:46:00,
2015-08-04 02:47:00,76.8,72.6,29.93,WSW,246,0.0,0.0,87,0.00,,---,0.00,VWS V13.01,2015-08-04 07:47:00,
2015-08-04 02:48:00,76.8,72.6,29.93,WSW,246,0.0,0.0,87,0.00,,---,0.00,VWS V13.01,2015-08-04 07:48:00,
2015-08-04 02:49:00,76.8,72.6,29.93,WSW,246,0.0,0.0,87,0.00,,---,0.00,VWS V13.01,2015-08-04 07:49:00,
2015-08-04 02:50:00,76.8,73.0,29.93,WSW,246,0.0,0.0,88,0.00,,---,0.00,VWS V13.01,2015-08-04 07:50:00,
2015-08-04 02:51:00,76.7,72.9,29.93,WSW,246,0.0,0.0,88,0.00,,---,0.00,VWS V13.01,2015-08-04 07:51:00,
2015-08-04 02:52:00,76.7,72.9,29.93,WSW,246,0.0,0.0,88,0.00,,---,0.00,VWS V13.01,2015-08-04 07:52:00,
2015-08-04 02:53:00,76.7,72.9,29.93,WSW,246,0.0,0.0,88,0.00,,---,0.00,VWS V13.01,2015-08-04 07:53:00,
2015-08-04 02:54:00,76.7,72.9,29.93,WSW,246,0.0,0.0,88,0.00,,---,0.00,VWS V13.01,2015-08-04 07:54:00,
2015-08-04 02:55:00,76.7,72.9,29.93,WSW,246,0.0,0.0,88,0.00,,---,0.00,VWS V13.01,2015-08-04 07:55:00,
2015-08-04 02:56:00,76.7,72.9,29.93,WSW,246,0.0,0.0,88,0.00,,---,0.00,VWS V13.01,2015-08-04 07:56:00,
2015-08-04 02:57:00,76.7,72.9,29.93,WSW,246,0.0,0.0,88,0.00,,---,0.00,VWS V13.01,2015-08-04 07:57:00,
2015-08-04 02:58:00,76.7,72.9,29.93,WSW,246,0.0,0.0,88,0.00,,---,0.00,VWS V13.01,2015-08-04 07:58:00,
2015-08-04 02:59:00,76.7,72.9,29.93,WSW,246,0.0,0.0,88,0.00,,---,0.00,VWS V13.01,2015-08-04 07:59:00,
2015-08-04 03:00:00,76.7,72.9,29.93,WSW,246,0.0,0.0,88,0.00,,---,0.00,VWS V13.01,2015-08-04 08:00:00,
2015-08-04 03:01:00,76.7,72.9,29.93,WSW,246,0.0,0.0,88,0.00,,---,0.00,VWS V13.01,2015-08-04 08:01:00,
2015-08-04 03:02:00,76.7,72.9,29.93,WSW,246,0.0,0.0,88,0.00,,---,0.00,VWS V13.01,2015-08-04 08:02:00,
2015-08-04 03:03:00,76.7,72.9,29.93,WSW,246,0.0,0.0,88,0.00,,---,0.00,VWS V13.01,2015-08-04 08:03:00,
2015-08-04 03:04:00,76.7,72.9,29.93,WSW,246,0.0,0.0,88,0.00,,---,0.00,VWS V13.01,2015-08-04 08:04:00,
2015-08-04 03:05:00,76.7,72.9,29.93,WSW,246,0.0,0.0,88,0.00,,---,0.00,VWS V13.01,2015-08-04 08:05:00,
2015-08-04 03:06:00,76.7,72.9,29.93,WSW,246,0.0,0.0,88,0.00,,---,0.00,VWS V13.01,2015-08-04 08:06:00,
2015-08-04 03:07:00,76.7,72.9,29.93,WSW,246,0.0,0.0,88,0.00,,---,0.00,VWS V13.01,2015-08-04 08:07:00,
2015-08-04 03:08:00,76.7,72.9,29.93,WSW,246,0.0,0.0,88,0.00,,---,0.00,VWS V13.01,2015-08-04 08:08:00,
2015-08-04 03:09:00,76.7,72.9,29.93,WSW,246,0.0,0.0,88,0.00,,---,0.00,VWS V13.01,2015-08-04 08:09:00,
2015-08-04 03:10:00,76.6,72.8,29.93,WSW,246,0.0,0.0,88,0.00,,---,0.00,VWS V13.01,2015-08-04 08:10:00,
2015-08-04 03:11:00,76.6,72.8,29.93,WSW,246,0.0,0.0,88,0.00,,---,0.00,VWS V13.01,2015-08-04 08:11:00,
2015-08-04 03:12:00,76.6,72.8,29.93,WSW,246,0.0,0.0,88,0.00,,---,0.00,VWS V13.01,2015-08-04 08:12:00,
2015-08-04 03:13:00,76.6,72.8,29.93,WSW,246,0.0,0.0,88,0.00,,---,0.00,VWS V13.01,2015-08-04 08:13:00,
2015-08-04 03:14:00,76.6,72.8,29.93,WSW,246,0.0,0.0,88,0.00,,---,0.00,VWS V13.01,2015-08-04 08:14:00,
2015-08-04 03:15:00,76.6,72.8,29.93,WSW,246,0.0,0.0,88,0.00,,---,0.00,VWS V13.01,2015-08-04 08:15:00,
2015-08-04 03:16:00,76.6,72.8,29.93,WSW,246,0.0,0.0,88,0.00,,---,0.00,VWS V13.01,2015-08-04 08:16:00,
2015-08-04 03:17:00,76.6,72.8,29.93,WSW,246,0.0,0.0,88,0.00,,---,0.00,VWS V13.01,2015-08-04 08:17:00,
2015-08-04 03:18:00,77.0,72.8,29.92,WSW,246,0.0,0.0,87,0.00,,---,0.00,VWS V13.01,2015-08-04 08:18:00,
2015-08-04 03:19:00,76.6,72.8,29.93,WSW,246,0.0,0.0,88,0.00,,---,0.00,VWS V13.01,2015-08-04 08:19:00,
2015-08-04 03:20:00,76.5,72.7,29.93,WSW,246,0.0,0.0,88,0.00,,---,0.00,VWS V13.01,2015-08-04 08:20:00,
2015-08-04 03:21:00,76.5,72.7,29.93,WSW,246,0.0,0.0,88,0.00,,---,0.00,VWS V13.01,2015-08-04 08:21:00,
2015-08-04 03:22:00,76.5,72.7,29.93,WSW,246,0.0,0.0,88,0.00,,---,0.00,VWS V13.01,2015-08-04 08:22:00,
2015-08-04 03:23:00,76.5,72.7,29.93,WSW,246,0.0,0.0,88,0.00,,---,0.00,VWS V13.01,2015-08-04 08:23:00,
2015-08-04 03:24:00,76.5,72.7,29.93,WSW,246,0.0,0.0,88,0.00,,---,0.00,VWS V13.01,2015-08-04 08:24:00,
2015-08-04 03:25:00,76.5,72.7,29.93,WSW,246,0.0,0.0,88,0.00,,---,0.00,VWS V13.01,2015-08-04 08:25:00,
2015-08-04 03:26:00,76.5,72.7,29.93,WSW,246,0.0,0.0,88,0.00,,---,0.00,VWS V13.01,2015-08-04 08:26:00,
2015-08-04 03:27:00,76.5,72.7,29.93,WSW,246,0.0,0.0,88,0.00,,---,0.00,VWS V13.01,2015-08-04 08:27:00,
2015-08-04 03:28:00,76.5,72.7,29.93,WSW,246,0.0,0.0,88,0.00,,---,0.00,VWS V13.01,2015-08-04 08:28:00,
2015-08-04 03:29:00,76.5,72.7,29.93,WSW,246,0.0,0.0,88,0.00,,---,0.00,VWS V13.01,2015-08-04 08:29:00,
2015-08-04 03:30:00,76.5,72.7,29.93,WSW,246,0.0,0.0,88,0.00,,---,0.00,VWS V13.01,2015-08-04 08:30:00,
2015-08-04 03:31:00,76.5,72.7,29.93,WSW,246,0.0,0.0,88,0.00,,---,0.00,VWS V13.01,2015-08-04 08:31:00,
2015-08-04 03:32:00,76.5,72.7,29.93,WSW,246,0.0,0.0,88,0.00,,---,0.00,VWS V13.01,2015-08-04 08:32:00,
2015-08-04 03:33:00,76.5,72.7,29.93,WSW,246,0.0,0.0,88,0.00,,---,0.00,VWS V13.01,2015-08-04 08:33:00,
2015-08-04 03:34:00,76.5,72.7,29.93,WSW,246,0.0,0.0,88,0.00,,---,0.00,VWS V13.01,2015-08-04 08:34:00,
2015-08-04 03:35:00,76.5,72.7,29.93,WSW,246,0.0,0.0,88,0.00,,---,0.00,VWS V13.01,2015-08-04 08:35:00,
2015-08-04 03:36:00,76.5,72.7,29.94,WSW,246,0.0,0.0,88,0.00,,---,0.00,VWS V13.01,2015-08-04 08:36:00,
2015-08-04 03:37:00,76.5,72.7,29.94,WSW,246,0.0,0.0,88,0.00,,---,0.00,VWS V13.01,2015-08-04 08:37:00,
2015-08-04 03:38:00,76.5,72.7,29.93,WSW,246,0.0,0.0,88,0.00,,---,0.00,VWS V13.01,2015-08-04 08:38:00,
2015-08-04 03:39:00,76.5,72.7,29.94,WSW,244,0.0,0.0,88,0.00,,---,0.00,VWS V13.01,2015-08-04 08:39:00,
2015-08-04 03:40:00,76.5,72.7,29.94,WSW,244,0.0,0.0,88,0.00,,---,0.00,VWS V13.01,2015-08-04 08:40:00,
2015-08-04 03:41:00,76.5,72.7,29.94,WSW,244,0.0,0.0,88,0.00,,---,0.00,VWS V13.01,2015-08-04 08:41:00,
2015-08-04 03:42:00,76.5,72.7,29.94,WSW,244,0.0,0.0,88,0.00,,---,0.00,VWS V13.01,2015-08-04 08:42:00,
2015-08-04 03:43:00,76.5,72.7,29.94,WSW,244,0.0,0.0,88,0.00,,---,0.00,VWS V13.01,2015-08-04 08:43:00,
2015-08-04 03:44:00,76.4,72.6,29.94,WSW,244,0.0,0.0,88,0.00,,---,0.00,VWS V13.01,2015-08-04 08:44:00,
2015-08-04 03:45:00,76.4,72.6,29.94,WSW,244,0.0,0.0,88,0.00,,---,0.00,VWS V13.01,2015-08-04 08:45:00,
2015-08-04 03:46:00,76.4,72.6,29.94,WSW,244,0.0,0.0,88,0.00,,---,0.00,VWS V13.01,2015-08-04 08:46:00,
2015-08-04 03:47:00,76.4,72.6,29.94,WSW,244,0.0,0.0,88,0.00,,---,0.00,VWS V13.01,2015-08-04 08:47:00,
2015-08-04 03:48:00,76.4,72.6,29.94,WSW,244,0.0,0.0,88,0.00,,---,0.00,VWS V13.01,2015-08-04 08:48:00,
2015-08-04 03:49:00,76.4,72.6,29.94,WSW,244,0.0,0.0,88,0.00,,---,0.00,VWS V13.01,2015-08-04 08:49:00,
2015-08-04 03:50:00,76.3,72.5,29.94,WSW,244,0.0,0.0,88,0.00,,---,0.00,VWS V13.01,2015-08-04 08:50:00,
2015-08-04 03:51:00,76.3,72.5,29.95,WSW,244,0.0,0.0,88,0.00,,---,0.00,VWS V13.01,2015-08-04 08:51:00,
2015-08-04 03:52:00,76.3,72.5,29.94,WSW,244,0.0,0.0,88,0.00,,---,0.00,VWS V13.01,2015-08-04 08:52:00,
2015-08-04 03:53:00,76.3,72.5,29.95,WSW,244,0.0,0.0,88,0.00,,---,0.00,VWS V13.01,2015-08-04 08:53:00,
2015-08-04 03:54:00,76.3,72.5,29.95,WSW,244,0.0,0.0,88,0.00,,---,0.00,VWS V13.01,2015-08-04 08:54:00,
2015-08-04 03:55:00,76.3,72.5,29.94,WSW,244,0.0,0.0,88,0.00,,---,0.00,VWS V13.01,2015-08-04 08:55:00,
2015-08-04 03:56:00,76.2,72.4,29.94,WSW,244,0.0,0.0,88,0.00,,---,0.00,VWS V13.01,2015-08-04 08:56:00,
2015-08-04 03:57:00,76.2,72.4,29.94,WSW,244,0.0,0.0,88,0.00,,---,0.00,VWS V13.01,2015-08-04 08:57:00,
2015-08-04 03:58:00,76.2,72.4,29.94,WSW,244,0.0,0.0,88,0.00,,---,0.00,VWS V13.01,2015-08-04 08:58:00,
2015-08-04 03:59:00,76.2,72.4,29.94,WSW,244,0.0,0.0,88,0.00,,---,0.00,VWS V13.01,2015-08-04 08:59:00,
2015-08-04 04:00:00,76.2,72.4,29.94,WSW,244,0.0,0.0,88,0.00,,---,0.00,VWS V13.01,2015-08-04 09:00:00,
2015-08-04 04:01:00,76.1,72.3,29.94,WSW,244,0.0,0.0,88,0.00,,---,0.00,VWS V13.01,2015-08-04 09:01:00,
2015-08-04 04:02:00,76.1,72.3,29.94,WSW,244,0.0,0.0,88,0.00,,---,0.00,VWS V13.01,2015-08-04 09:02:00,
2015-08-04 04:03:00,76.1,72.3,29.94,WSW,244,0.0,0.0,88,0.00,,---,0.00,VWS V13.01,2015-08-04 09:03:00,
2015-08-04 04:04:00,76.0,72.2,29.95,WSW,244,0.0,0.0,88,0.00,,---,0.00,VWS V13.01,2015-08-04 09:04:00,
2015-08-04 04:05:00,76.0,72.2,29.95,WSW,244,0.0,0.0,88,0.00,,---,0.00,VWS V13.01,2015-08-04 09:05:00,
2015-08-04 04:06:00,76.0,72.2,29.95,WSW,244,0.0,0.0,88,0.00,,---,0.00,VWS V13.01,2015-08-04 09:06:00,
2015-08-04 04:07:00,75.9,72.1,29.95,WSW,244,0.0,0.0,88,0.00,,---,0.00,VWS V13.01,2015-08-04 09:07:00,
2015-08-04 04:08:00,75.9,72.1,29.95,WSW,244,0.0,0.0,88,0.00,,---,0.00,VWS V13.01,2015-08-04 09:08:00,
2015-08-04 04:09:00,75.9,72.1,29.95,WSW,244,0.0,0.0,88,0.00,,---,0.00,VWS V13.01,2015-08-04 09:09:00,
2015-08-04 04:10:00,75.8,72.0,29.95,WSW,244,0.0,0.0,88,0.00,,---,0.00,VWS V13.01,2015-08-04 09:10:00,
2015-08-04 04:11:00,75.8,72.0,29.95,WSW,244,0.0,0.0,88,0.00,,---,0.00,VWS V13.01,2015-08-04 09:11:00,
2015-08-04 04:12:00,75.8,72.0,29.95,WSW,244,0.0,0.0,88,0.00,,---,0.00,VWS V13.01,2015-08-04 09:12:00,
2015-08-04 04:13:00,75.8,72.0,29.95,WSW,244,0.0,0.0,88,0.00,,---,0.00,VWS V13.01,2015-08-04 09:13:00,
2015-08-04 04:14:00,75.7,71.9,29.96,WSW,244,0.0,0.0,88,0.00,,---,0.00,VWS V13.01,2015-08-04 09:14:00,
2015-08-04 04:15:00,75.7,71.9,29.96,WSW,244,0.0,0.0,88,0.00,,---,0.00,VWS V13.01,2015-08-04 09:15:00,
2015-08-04 04:16:00,75.7,71.9,29.96,WSW,244,0.0,0.0,88,0.00,,---,0.00,VWS V13.01,2015-08-04 09:16:00,
2015-08-04 04:17:00,75.6,71.8,29.96,WSW,244,0.0,0.0,88,0.00,,---,0.00,VWS V13.01,2015-08-04 09:17:00,
2015-08-04 04:18:00,75.6,71.8,29.95,WSW,244,0.0,0.0,88,0.00,,---,0.00,VWS V13.01,2015-08-04 09:18:00,
2015-08-04 04:19:00,75.6,71.8,29.96,WSW,244,0.0,0.0,88,0.00,,---,0.00,VWS V13.01,2015-08-04 09:19:00,
2015-08-04 04:20:00,75.6,71.8,29.96,WSW,244,0.0,0.0,88,0.00,,---,0.00,VWS V13.01,2015-08-04 09:20:00,
2015-08-04 04:21:00,76.5,72.7,29.93,WSW,246,0.0,0.0,88,0.00,,---,0.00,VWS V13.01,2015-08-04 09:21:00,
2015-08-04 04:22:00,75.5,71.7,29.96,WSW,244,0.0,0.0,88,0.00,,---,0.00,VWS V13.01,2015-08-04 09:22:00,
2015-08-04 04:23:00,75.5,71.7,29.96,WSW,244,0.0,0.0,88,0.00,,---,0.00,VWS V13.01,2015-08-04 09:23:00,
2015-08-04 04:24:00,75.5,71.7,29.96,WSW,244,0.0,0.0,88,0.00,,---,0.00,VWS V13.01,2015-08-04 09:24:00,
2015-08-04 04:25:00,75.5,71.7,29.96,WSW,244,0.0,0.0,88,0.00,,---,0.00,VWS V13.01,2015-08-04 09:25:00,
2015-08-04 04:26:00,75.5,71.7,29.96,WSW,244,0.0,0.0,88,0.00,,---,0.00,VWS V13.01,2015-08-04 09:26:00,
2015-08-04 04:27:00,75.4,71.6,29.96,WSW,244,0.0,0.0,88,0.00,,---,0.00,VWS V13.01,2015-08-04 09:27:00,
2015-08-04 04:28:00,75.4,71.6,29.96,WSW,244,0.0,0.0,88,0.00,,---,0.00,VWS V13.01,2015-08-04 09:28:00,
2015-08-04 04:29:00,75.4,71.6,29.96,WSW,244,0.0,0.0,88,0.00,,---,0.00,VWS V13.01,2015-08-04 09:29:00,
2015-08-04 04:30:00,75.4,71.6,29.96,WSW,244,0.0,0.0,88,0.00,,---,0.00,VWS V13.01,2015-08-04 09:30:00,
2015-08-04 04:31:00,75.3,71.5,29.96,WSW,244,0.0,0.0,88,0.00,,---,0.00,VWS V13.01,2015-08-04 09:31:00,
2015-08-04 04:32:00,75.3,71.5,29.96,WSW,244,0.0,0.0,88,0.00,,---,0.00,VWS V13.01,2015-08-04 09:32:00,
2015-08-04 04:33:00,75.3,71.5,29.96,WSW,244,0.0,0.0,88,0.00,,---,0.00,VWS V13.01,2015-08-04 09:33:00,
2015-08-04 04:34:00,75.3,71.5,29.96,WSW,244,0.0,0.0,88,0.00,,---,0.00,VWS V13.01,2015-08-04 09:34:00,
2015-08-04 04:35:00,75.3,71.5,29.96,WSW,244,0.0,0.0,88,0.00,,---,0.00,VWS V13.01,2015-08-04 09:35:00,
2015-08-04 04:36:00,75.2,71.4,29.96,WSW,244,0.0,0.0,88,0.00,,---,0.00,VWS V13.01,2015-08-04 09:36:00,
2015-08-04 04:37:00,75.2,71.4,29.96,WSW,244,0.0,0.0,88,0.00,,---,0.00,VWS V13.01,2015-08-04 09:37:00,
2015-08-04 04:38:00,75.2,71.4,29.96,WSW,244,0.0,0.0,88,0.00,,---,0.00,VWS V13.01,2015-08-04 09:38:00,
2015-08-04 04:39:00,75.2,71.4,29.96,WSW,244,0.0,0.0,88,0.00,,---,0.00,VWS V13.01,2015-08-04 09:39:00,
2015-08-04 04:40:00,75.2,71.4,29.96,WSW,244,0.0,0.0,88,0.00,,---,0.00,VWS V13.01,2015-08-04 09:40:00,
2015-08-04 04:41:00,75.1,71.3,29.96,WSW,244,0.0,0.0,88,0.00,,---,0.00,VWS V13.01,2015-08-04 09:41:00,
2015-08-04 04:42:00,75.1,71.3,29.96,WSW,244,0.0,0.0,88,0.00,,---,0.00,VWS V13.01,2015-08-04 09:42:00,
2015-08-04 04:43:00,75.1,71.3,29.96,WSW,244,0.0,0.0,88,0.00,,---,0.00,VWS V13.01,2015-08-04 09:43:00,
2015-08-04 04:44:00,75.1,71.3,29.96,WSW,244,0.0,0.0,88,0.00,,---,0.00,VWS V13.01,2015-08-04 09:44:00,
2015-08-04 04:45:00,75.1,71.3,29.96,WSW,244,0.0,0.0,88,0.00,,---,0.00,VWS V13.01,2015-08-04 09:45:00,
2015-08-04 04:46:00,75.1,71.3,29.96,WSW,244,0.0,0.0,88,0.00,,---,0.00,VWS V13.01,2015-08-04 09:46:00,
2015-08-04 04:47:00,75.1,71.3,29.96,WSW,244,0.0,0.0,88,0.00,,---,0.00,VWS V13.01,2015-08-04 09:47:00,
2015-08-04 04:48:00,75.1,71.3,29.96,WSW,244,0.0,0.0,88,0.00,,---,0.00,VWS V13.01,2015-08-04 09:48:00,
2015-08-04 04:49:00,75.1,71.3,29.96,WSW,244,0.0,0.0,88,0.00,,---,0.00,VWS V13.01,2015-08-04 09:49:00,
2015-08-04 04:50:00,75.1,71.3,29.96,WSW,244,0.0,0.0,88,0.00,,---,0.00,VWS V13.01,2015-08-04 09:50:00,
2015-08-04 04:51:00,75.2,71.4,29.96,WSW,244,0.0,0.0,88,0.00,,---,0.00,VWS V13.01,2015-08-04 09:51:00,
2015-08-04 04:52:00,75.2,71.4,29.96,WSW,244,0.0,0.0,88,0.00,,---,0.00,VWS V13.01,2015-08-04 09:52:00,
2015-08-04 04:53:00,75.3,71.5,29.96,WSW,244,0.0,0.0,88,0.00,,---,0.00,VWS V13.01,2015-08-04 09:53:00,
2015-08-04 04:54:00,75.3,71.5,29.96,WSW,244,0.0,0.0,88,0.00,,---,0.00,VWS V13.01,2015-08-04 09:54:00,
2015-08-04 04:55:00,75.4,71.6,29.96,WSW,244,0.0,0.0,88,0.00,,---,0.00,VWS V13.01,2015-08-04 09:55:00,
2015-08-04 04:56:00,75.4,71.6,29.97,WSW,244,0.0,0.0,88,0.00,,---,0.00,VWS V13.01,2015-08-04 09:56:00,
2015-08-04 04:57:00,75.4,71.6,29.97,WSW,244,0.0,0.0,88,0.00,,---,0.00,VWS V13.01,2015-08-04 09:57:00,
2015-08-04 04:58:00,75.4,71.6,29.96,WSW,244,0.0,0.0,88,0.00,,---,0.00,VWS V13.01,2015-08-04 09:58:00,
2015-08-04 04:59:00,75.5,71.7,29.97,WSW,244,0.0,0.0,88,0.00,,---,0.00,VWS V13.01,2015-08-04 09:59:00,
2015-08-04 05:00:00,75.5,71.7,29.97,WSW,244,0.0,0.0,88,0.00,,---,0.00,VWS V13.01,2015-08-04 10:00:00,
2015-08-04 05:01:00,75.5,71.7,29.97,WSW,244,0.0,0.0,88,0.00,,---,0.00,VWS V13.01,2015-08-04 10:01:00,
2015-08-04 05:02:00,75.5,71.7,29.97,WSW,244,0.0,0.0,88,0.00,,---,0.00,VWS V13.01,2015-08-04 10:02:00,
2015-08-04 05:03:00,75.5,71.7,29.97,WSW,244,0.0,0.0,88,0.00,,---,0.00,VWS V13.01,2015-08-04 10:03:00,
2015-08-04 05:04:00,75.5,71.7,29.97,WSW,244,0.0,0.0,88,0.00,,---,0.00,VWS V13.01,2015-08-04 10:04:00,
2015-08-04 05:05:00,75.5,71.7,29.97,WSW,244,0.0,0.0,88,0.00,,---,0.00,VWS V13.01,2015-08-04 10:05:00,
2015-08-04 05:06:00,75.5,71.7,29.97,WSW,244,0.0,0.0,88,0.00,,---,0.00,VWS V13.01,2015-08-04 10:06:00,
2015-08-04 05:07:00,75.4,71.6,29.97,WSW,244,0.0,0.0,88,0.00,,---,0.00,VWS V13.01,2015-08-04 10:07:00,
2015-08-04 05:08:00,75.4,71.6,29.97,WSW,244,0.0,0.0,88,0.00,,---,0.00,VWS V13.01,2015-08-04 10:08:00,
2015-08-04 05:09:00,75.4,71.6,29.97,WSW,244,0.0,0.0,88,0.00,,---,0.00,VWS V13.01,2015-08-04 10:09:00,
2015-08-04 05:10:00,75.4,71.6,29.97,WSW,244,0.0,0.0,88,0.00,,---,0.00,VWS V13.01,2015-08-04 10:10:00,
2015-08-04 05:11:00,75.3,71.5,29.97,WSW,244,0.0,0.0,88,0.00,,---,0.00,VWS V13.01,2015-08-04 10:11:00,
2015-08-04 05:12:00,75.3,71.5,29.97,WSW,244,0.0,0.0,88,0.00,,---,0.00,VWS V13.01,2015-08-04 10:12:00,
2015-08-04 05:13:00,75.3,71.5,29.97,WSW,244,0.0,0.0,88,0.00,,---,0.00,VWS V13.01,2015-08-04 10:13:00,
2015-08-04 05:14:00,75.3,71.5,29.97,WSW,244,0.0,0.0,88,0.00,,---,0.00,VWS V13.01,2015-08-04 10:14:00,
2015-08-04 05:15:00,75.3,71.5,29.97,WSW,244,0.0,0.0,88,0.00,,---,0.00,VWS V13.01,2015-08-04 10:15:00,
2015-08-04 05:16:00,75.3,71.5,29.97,WSW,244,0.0,0.0,88,0.00,,---,0.00,VWS V13.01,2015-08-04 10:16:00,
2015-08-04 05:17:00,75.3,71.5,29.97,WSW,244,0.0,0.0,88,0.00,,---,0.00,VWS V13.01,2015-08-04 10:17:00,
2015-08-04 05:18:00,75.2,71.4,29.97,WSW,244,0.0,0.0,88,0.00,,---,0.00,VWS V13.01,2015-08-04 10:18:00,
2015-08-04 05:19:00,75.2,71.4,29.97,WSW,244,0.0,0.0,88,0.00,,---,0.00,VWS V13.01,2015-08-04 10:19:00,
2015-08-04 05:20:00,75.2,71.4,29.97,WSW,244,0.0,0.0,88,0.00,,---,0.00,VWS V13.01,2015-08-04 10:20:00,
2015-08-04 05:21:00,75.2,71.4,29.97,WSW,244,0.0,0.0,88,0.00,,---,0.00,VWS V13.01,2015-08-04 10:21:00,
2015-08-04 05:22:00,75.2,71.4,29.97,WSW,244,0.0,0.0,88,0.00,,---,0.00,VWS V13.01,2015-08-04 10:22:00,
2015-08-04 05:23:00,75.2,71.4,29.97,WSW,244,0.0,0.0,88,0.00,,---,0.00,VWS V13.01,2015-08-04 10:23:00,
2015-08-04 05:24:00,75.2,71.4,29.98,WSW,244,0.0,0.0,88,0.00,,---,0.00,VWS V13.01,2015-08-04 10:24:00,
2015-08-04 05:25:00,75.1,71.3,29.98,WSW,244,0.0,0.0,88,0.00,,---,0.00,VWS V13.01,2015-08-04 10:25:00,
2015-08-04 05:26:00,75.1,71.3,29.98,WSW,244,0.0,0.0,88,0.00,,---,0.00,VWS V13.01,2015-08-04 10:26:00,
2015-08-04 05:27:00,75.1,71.3,29.98,WSW,244,0.0,0.0,88,0.00,,---,0.00,VWS V13.01,2015-08-04 10:27:00,
2015-08-04 05:28:00,75.1,71.3,29.98,WSW,244,0.0,0.0,88,0.00,,---,0.00,VWS V13.01,2015-08-04 10:28:00,
2015-08-04 05:29:00,75.1,71.3,29.98,WSW,244,0.0,0.0,88,0.00,,---,0.00,VWS V13.01,2015-08-04 10:29:00,
2015-08-04 05:30:00,75.1,71.3,29.98,WSW,244,0.0,0.0,88,0.00,,---,0.00,VWS V13.01,2015-08-04 10:30:00,
2015-08-04 05:31:00,75.1,71.3,29.98,WSW,244,0.0,0.0,88,0.00,,---,0.00,VWS V13.01,2015-08-04 10:31:00,
2015-08-04 05:32:00,75.1,71.3,29.98,WSW,244,0.0,0.0,88,0.00,,---,0.00,VWS V13.01,2015-08-04 10:32:00,
2015-08-04 05:33:00,75.1,71.3,29.98,WSW,244,0.0,0.0,88,0.00,,---,0.00,VWS V13.01,2015-08-04 10:33:00,
2015-08-04 05:34:00,75.0,71.2,29.98,WSW,244,0.0,0.0,88,0.00,,---,0.00,VWS V13.01,2015-08-04 10:34:00,
2015-08-04 05:35:00,75.0,71.2,29.98,WSW,244,0.0,0.0,88,0.00,,---,0.00,VWS V13.01,2015-08-04 10:35:00,
2015-08-04 05:36:00,75.0,71.2,29.97,WSW,244,0.0,0.0,88,0.00,,---,0.00,VWS V13.01,2015-08-04 10:36:00,
2015-08-04 05:37:00,75.0,71.2,29.97,WSW,244,0.0,0.0,88,0.00,,---,0.00,VWS V13.01,2015-08-04 10:37:00,
2015-08-04 05:38:00,75.0,71.2,29.98,WSW,244,0.0,0.0,88,0.00,,---,0.00,VWS V13.01,2015-08-04 10:38:00,
2015-08-04 05:39:00,75.0,71.2,29.98,WSW,244,0.0,0.0,88,0.00,,---,0.00,VWS V13.01,2015-08-04 10:39:00,
2015-08-04 05:40:00,74.9,71.1,29.98,WSW,244,0.0,0.0,88,0.00,,---,0.00,VWS V13.01,2015-08-04 10:40:00,
2015-08-04 05:41:00,74.9,71.1,29.98,WSW,244,0.0,0.0,88,0.00,,---,0.00,VWS V13.01,2015-08-04 10:41:00,
2015-08-04 05:42:00,74.9,71.1,29.98,WSW,244,0.0,0.0,88,0.00,,---,0.00,VWS V13.01,2015-08-04 10:42:00,
2015-08-04 05:43:00,74.9,71.1,29.98,WSW,244,0.0,0.0,88,0.00,,---,0.00,VWS V13.01,2015-08-04 10:43:00,
2015-08-04 05:44:00,74.9,71.1,29.98,WSW,244,0.0,0.0,88,0.00,,---,0.00,VWS V13.01,2015-08-04 10:44:00,
2015-08-04 05:45:00,74.9,71.1,29.98,WSW,244,0.0,0.0,88,0.00,,---,0.00,VWS V13.01,2015-08-04 10:45:00,
2015-08-04 05:46:00,74.9,71.1,29.98,WSW,244,0.0,0.0,88,0.00,,---,0.00,VWS V13.01,2015-08-04 10:46:00,
2015-08-04 05:47:00,74.9,71.1,29.98,WSW,244,0.0,0.0,88,0.00,,---,0.00,VWS V13.01,2015-08-04 10:47:00,
2015-08-04 05:48:00,74.9,71.1,29.98,WSW,244,0.0,0.0,88,0.00,,---,0.00,VWS V13.01,2015-08-04 10:48:00,
2015-08-04 05:49:00,74.9,71.1,29.98,WSW,244,0.0,0.0,88,0.00,,---,0.00,VWS V13.01,2015-08-04 10:49:00,
2015-08-04 05:50:00,74.9,71.1,29.98,WSW,244,0.0,0.0,88,0.00,,---,0.00,VWS V13.01,2015-08-04 10:50:00,
2015-08-04 05:51:00,74.9,71.1,29.98,WSW,244,0.0,0.0,88,0.00,,---,0.00,VWS V13.01,2015-08-04 10:51:00,
2015-08-04 05:52:00,74.9,71.1,29.98,WSW,244,0.0,0.0,88,0.00,,---,0.00,VWS V13.01,2015-08-04 10:52:00,
2015-08-04 05:53:00,74.9,71.1,29.98,WSW,244,0.0,0.0,88,0.00,,---,0.00,VWS V13.01,2015-08-04 10:53:00,
2015-08-04 05:54:00,74.9,71.1,29.98,WSW,244,0.0,0.0,88,0.00,,---,0.00,VWS V13.01,2015-08-04 10:54:00,
2015-08-04 05:55:00,74.9,71.1,29.99,WSW,244,0.0,0.0,88,0.00,,---,0.00,VWS V13.01,2015-08-04 10:55:00,
2015-08-04 05:56:00,74.9,71.1,29.99,WSW,244,0.0,0.0,88,0.00,,---,0.00,VWS V13.01,2015-08-04 10:56:00,
2015-08-04 05:57:00,74.9,71.1,29.98,WSW,244,0.0,0.0,88,0.00,,---,0.00,VWS V13.01,2015-08-04 10:57:00,
2015-08-04 05:58:00,74.9,71.1,29.99,WSW,244,0.0,0.0,88,0.00,,---,0.00,VWS V13.01,2015-08-04 10:58:00,
2015-08-04 05:59:00,74.9,71.1,29.99,WSW,244,0.0,0.0,88,0.00,,---,0.00,VWS V13.01,2015-08-04 10:59:00,
2015-08-04 06:00:00,74.9,71.1,29.99,WSW,244,0.0,0.0,88,0.00,,---,0.00,VWS V13.01,2015-08-04 11:00:00,
2015-08-04 06:01:00,74.9,71.4,29.99,WSW,244,0.0,0.0,89,0.00,,---,0.00,VWS V13.01,2015-08-04 11:01:00,
2015-08-04 06:02:00,74.9,71.4,29.99,WSW,244,0.0,0.0,89,0.00,,---,0.00,VWS V13.01,2015-08-04 11:02:00,
2015-08-04 06:03:00,74.9,71.4,29.99,WSW,244,0.0,0.0,89,0.00,,---,0.00,VWS V13.01,2015-08-04 11:03:00,
2015-08-04 06:04:00,74.9,71.4,29.99,WSW,244,0.0,0.0,89,0.00,,---,0.00,VWS V13.01,2015-08-04 11:04:00,
2015-08-04 06:05:00,74.9,71.4,29.99,WSW,244,0.0,0.0,89,0.00,,---,0.00,VWS V13.01,2015-08-04 11:05:00,
2015-08-04 06:06:00,75.0,71.5,29.99,WSW,244,0.0,0.0,89,0.00,,---,0.00,VWS V13.01,2015-08-04 11:06:00,
2015-08-04 06:07:00,75.0,71.5,29.98,WSW,244,0.0,0.0,89,0.00,,---,0.00,VWS V13.01,2015-08-04 11:07:00,
2015-08-04 06:08:00,75.0,71.5,29.99,WSW,244,0.0,0.0,89,0.00,,---,0.00,VWS V13.01,2015-08-04 11:08:00,
2015-08-04 06:09:00,75.1,71.6,29.98,WSW,244,0.0,0.0,89,0.00,,---,0.00,VWS V13.01,2015-08-04 11:09:00,
2015-08-04 06:10:00,75.1,71.6,29.98,WSW,244,0.0,0.0,89,0.00,,---,0.00,VWS V13.01,2015-08-04 11:10:00,
2015-08-04 06:11:00,75.2,71.7,29.98,WSW,244,0.0,0.0,89,0.00,,---,0.00,VWS V13.01,2015-08-04 11:11:00,
2015-08-04 06:12:00,75.3,71.8,29.98,WSW,244,0.0,0.0,89,0.00,,---,0.00,VWS V13.01,2015-08-04 11:12:00,
2015-08-04 06:13:00,75.3,71.8,29.98,WSW,244,0.0,0.0,89,0.00,,---,0.00,VWS V13.01,2015-08-04 11:13:00,
2015-08-04 06:14:00,75.4,71.9,29.98,WSW,244,0.0,0.0,89,0.00,,---,0.00,VWS V13.01,2015-08-04 11:14:00,
2015-08-04 06:15:00,75.5,72.0,29.98,WSW,244,0.0,0.0,89,0.00,,---,0.00,VWS V13.01,2015-08-04 11:15:00,
2015-08-04 06:16:00,75.5,72.0,29.98,WSW,244,0.0,0.0,89,0.00,,---,0.00,VWS V13.01,2015-08-04 11:16:00,
2015-08-04 06:17:00,75.6,72.1,29.99,WSW,244,0.0,0.0,89,0.00,,---,0.00,VWS V13.01,2015-08-04 11:17:00,
2015-08-04 06:18:00,75.7,72.2,29.98,WSW,244,0.0,0.0,89,0.00,,---,0.00,VWS V13.01,2015-08-04 11:18:00,
2015-08-04 06:19:00,75.8,72.3,29.98,WSW,244,0.0,0.0,89,0.00,,---,0.00,VWS V13.01,2015-08-04 11:19:00,
2015-08-04 06:20:00,75.8,72.3,29.98,WSW,244,0.0,0.0,89,0.00,,---,0.00,VWS V13.01,2015-08-04 11:20:00,
2015-08-04 06:21:00,75.1,71.3,29.98,WSW,244,0.0,0.0,88,0.00,,---,0.00,VWS V13.01,2015-08-04 11:21:00,
2015-08-04 06:22:00,76.0,72.5,29.98,WSW,244,0.0,0.0,89,0.00,,---,0.00,VWS V13.01,2015-08-04 11:22:00,
2015-08-04 06:23:00,76.0,72.5,29.99,WSW,244,0.0,0.0,89,0.00,,---,0.00,VWS V13.01,2015-08-04 11:23:00,
2015-08-04 06:24:00,76.1,72.6,29.99,WSW,244,0.0,0.0,89,0.00,,---,0.00,VWS V13.01,2015-08-04 11:24:00,
2015-08-04 06:25:00,76.1,72.6,29.99,WSW,244,0.0,0.0,89,0.00,,---,0.00,VWS V13.01,2015-08-04 11:25:00,
2015-08-04 06:26:00,76.2,72.7,29.99,WSW,244,0.0,0.0,89,0.00,,---,0.00,VWS V13.01,2015-08-04 11:26:00,
2015-08-04 06:27:00,76.2,72.7,29.99,WSW,244,0.0,0.0,89,0.00,,---,0.00,VWS V13.01,2015-08-04 11:27:00,
2015-08-04 06:28:00,76.3,72.8,29.99,WSW,244,0.0,0.0,89,0.00,,---,0.00,VWS V13.01,2015-08-04 11:28:00,
2015-08-04 06:29:00,76.3,72.8,29.98,WSW,244,0.0,1.0,89,0.00,,---,0.00,VWS V13.01,2015-08-04 11:29:00,
2015-08-04 06:30:00,76.3,72.8,29.99,WSW,244,0.0,1.0,89,0.00,,---,0.00,VWS V13.01,2015-08-04 11:30:00,
2015-08-04 06:31:00,76.4,72.9,29.99,WSW,244,0.0,0.0,89,0.00,,---,0.00,VWS V13.01,2015-08-04 11:31:00,
2015-08-04 06:32:00,76.4,72.9,29.99,WSW,244,0.0,0.0,89,0.00,,---,0.00,VWS V13.01,2015-08-04 11:32:00,
2015-08-04 06:33:00,76.4,72.9,29.99,WSW,244,0.0,0.0,89,0.00,,---,0.00,VWS V13.01,2015-08-04 11:33:00,
2015-08-04 06:34:00,76.5,73.0,29.99,WSW,244,0.0,0.0,89,0.00,,---,0.00,VWS V13.01,2015-08-04 11:34:00,
2015-08-04 06:35:00,76.5,73.0,29.99,WSW,244,0.0,1.0,89,0.00,,---,0.00,VWS V13.01,2015-08-04 11:35:00,
2015-08-04 06:36:00,76.6,73.1,29.99,WSW,244,0.0,1.0,89,0.00,,---,0.00,VWS V13.01,2015-08-04 11:36:00,
2015-08-04 06:37:00,76.6,73.1,29.99,WSW,244,0.0,1.0,89,0.00,,---,0.00,VWS V13.01,2015-08-04 11:37:00,
2015-08-04 06:38:00,76.7,73.2,29.99,WSW,244,0.0,1.0,89,0.00,,---,0.00,VWS V13.01,2015-08-04 11:38:00,
2015-08-04 06:39:00,76.7,73.2,29.99,WSW,244,0.0,1.0,89,0.00,,---,0.00,VWS V13.01,2015-08-04 11:39:00,
2015-08-04 06:40:00,76.8,73.3,29.99,WSW,244,0.0,1.0,89,0.00,,---,0.00,VWS V13.01,2015-08-04 11:40:00,
2015-08-04 06:41:00,76.9,73.4,29.99,WSW,244,0.0,0.0,89,0.00,,---,0.00,VWS V13.01,2015-08-04 11:41:00,
2015-08-04 06:42:00,76.9,73.4,29.99,WSW,244,0.0,0.0,89,0.00,,---,0.00,VWS V13.01,2015-08-04 11:42:00,
2015-08-04 06:43:00,77.0,73.5,29.99,WSW,244,0.0,0.0,89,0.00,,---,0.00,VWS V13.01,2015-08-04 11:43:00,
2015-08-04 06:44:00,77.1,73.6,29.99,WSW,244,0.0,0.0,89,0.00,,---,0.00,VWS V13.01,2015-08-04 11:44:00,
2015-08-04 06:45:00,77.1,73.6,29.99,WSW,244,0.0,0.0,89,0.00,,---,0.00,VWS V13.01,2015-08-04 11:45:00,
2015-08-04 06:46:00,77.1,73.6,29.99,WSW,244,0.0,0.0,89,0.00,,---,0.00,VWS V13.01,2015-08-04 11:46:00,
2015-08-04 06:47:00,77.2,73.7,29.99,WSW,244,0.0,0.0,89,0.00,,---,0.00,VWS V13.01,2015-08-04 11:47:00,
2015-08-04 06:48:00,77.2,73.7,29.99,WSW,244,0.0,0.0,89,0.00,,---,0.00,VWS V13.01,2015-08-04 11:48:00,
2015-08-04 06:49:00,77.3,73.8,29.99,WSW,244,0.0,0.0,89,0.00,,---,0.00,VWS V13.01,2015-08-04 11:49:00,
2015-08-04 06:50:00,77.3,73.8,29.99,WSW,244,0.0,0.0,89,0.00,,---,0.00,VWS V13.01,2015-08-04 11:50:00,
2015-08-04 06:51:00,77.4,73.9,29.99,WSW,244,0.0,1.0,89,0.00,,---,0.00,VWS V13.01,2015-08-04 11:51:00,
2015-08-04 06:52:00,77.5,74.0,29.99,WSW,244,0.0,1.0,89,0.00,,---,0.00,VWS V13.01,2015-08-04 11:52:00,
2015-08-04 06:53:00,77.6,74.1,30.00,WSW,244,0.0,1.0,89,0.00,,---,0.00,VWS V13.01,2015-08-04 11:53:00,
2015-08-04 06:54:00,77.6,74.1,30.00,WSW,244,0.0,1.0,89,0.00,,---,0.00,VWS V13.01,2015-08-04 11:54:00,
2015-08-04 06:55:00,75.0,71.5,29.99,WSW,244,0.0,0.0,89,0.00,,---,0.00,VWS V13.01,2015-08-04 11:55:00,
2015-08-04 06:56:00,77.7,73.9,30.00,WSW,244,0.0,1.0,88,0.00,,---,0.00,VWS V13.01,2015-08-04 11:56:00,
2015-08-04 06:57:00,77.8,74.0,30.00,WSW,244,0.0,1.0,88,0.00,,---,0.00,VWS V13.01,2015-08-04 11:57:00,
2015-08-04 06:58:00,77.9,74.1,30.00,WSW,244,0.0,1.0,88,0.00,,---,0.00,VWS V13.01,2015-08-04 11:58:00,
2015-08-04 06:59:00,77.9,74.1,30.00,WSW,244,0.0,1.0,88,0.00,,---,0.00,VWS V13.01,2015-08-04 11:59:00,
2015-08-04 07:00:00,78.0,74.2,30.00,WSW,244,0.0,0.0,88,0.00,,---,0.00,VWS V13.01,2015-08-04 12:00:00,
2015-08-04 07:01:00,78.0,74.2,30.00,WSW,244,0.0,0.0,88,0.00,,---,0.00,VWS V13.01,2015-08-04 12:01:00,
2015-08-04 07:02:00,78.1,74.3,30.00,WSW,244,0.0,0.0,88,0.00,,---,0.00,VWS V13.01,2015-08-04 12:02:00,
2015-08-04 07:03:00,78.2,74.4,30.00,WSW,244,0.0,0.0,88,0.00,,---,0.00,VWS V13.01,2015-08-04 12:03:00,
2015-08-04 07:04:00,78.3,74.5,30.00,WSW,244,0.0,0.0,88,0.00,,---,0.00,VWS V13.01,2015-08-04 12:04:00,
2015-08-04 07:05:00,78.4,74.6,30.00,WSW,244,0.0,0.0,88,0.00,,---,0.00,VWS V13.01,2015-08-04 12:05:00,
2015-08-04 07:06:00,78.5,74.7,29.99,WSW,244,0.0,0.0,88,0.00,,---,0.00,VWS V13.01,2015-08-04 12:06:00,
2015-08-04 07:07:00,78.5,74.7,29.99,WSW,244,0.0,0.0,88,0.00,,---,0.00,VWS V13.01,2015-08-04 12:07:00,
2015-08-04 07:08:00,78.6,74.8,29.99,WSW,244,0.0,0.0,88,0.00,,---,0.00,VWS V13.01,2015-08-04 12:08:00,
2015-08-04 07:09:00,78.7,74.8,30.00,WSW,244,0.0,0.0,88,0.00,,---,0.00,VWS V13.01,2015-08-04 12:09:00,
2015-08-04 07:10:00,78.7,74.8,29.99,WSW,244,0.0,0.0,88,0.00,,---,0.00,VWS V13.01,2015-08-04 12:10:00,
2015-08-04 07:11:00,78.8,74.9,29.99,WSW,244,0.0,0.0,88,0.00,,---,0.00,VWS V13.01,2015-08-04 12:11:00,
2015-08-04 07:12:00,78.9,75.1,29.99,WSW,244,0.0,0.0,88,0.00,,---,0.00,VWS V13.01,2015-08-04 12:12:00,
2015-08-04 07:13:00,79.0,74.8,29.99,WSW,244,0.0,0.0,87,0.00,,---,0.00,VWS V13.01,2015-08-04 12:13:00,
2015-08-04 07:14:00,79.1,74.9,29.99,WSW,244,0.0,0.0,87,0.00,,---,0.00,VWS V13.01,2015-08-04 12:14:00,
2015-08-04 07:15:00,79.2,75.0,29.99,WSW,244,0.0,0.0,87,0.00,,---,0.00,VWS V13.01,2015-08-04 12:15:00,
2015-08-04 07:16:00,79.3,75.1,30.00,WSW,244,0.0,0.0,87,0.00,,---,0.00,VWS V13.01,2015-08-04 12:16:00,
2015-08-04 07:17:00,79.4,75.2,29.99,WSW,244,0.0,0.0,87,0.00,,---,0.00,VWS V13.01,2015-08-04 12:17:00,
2015-08-04 07:18:00,79.5,75.3,29.99,WSW,244,0.0,0.0,87,0.00,,---,0.00,VWS V13.01,2015-08-04 12:18:00,
2015-08-04 07:19:00,79.6,75.4,30.00,WSW,244,0.0,0.0,87,0.00,,---,0.00,VWS V13.01,2015-08-04 12:19:00,
2015-08-04 07:20:00,79.7,75.5,30.00,WSW,244,1.0,1.0,87,0.00,,---,0.00,VWS V13.01,2015-08-04 12:20:00,
2015-08-04 07:21:00,79.8,75.6,29.99,WSW,244,0.0,0.0,87,0.00,,---,0.00,VWS V13.01,2015-08-04 12:21:00,
2015-08-04 07:22:00,79.8,75.6,30.00,WSW,244,0.0,0.0,87,0.00,,---,0.00,VWS V13.01,2015-08-04 12:22:00,
2015-08-04 07:23:00,80.0,75.8,30.00,WSW,244,0.0,0.0,87,0.00,,---,0.00,VWS V13.01,2015-08-04 12:23:00,
2015-08-04 07:24:00,80.0,75.4,30.00,WSW,244,0.0,0.0,86,0.00,,---,0.00,VWS V13.01,2015-08-04 12:24:00,
2015-08-04 07:25:00,80.1,75.5,30.00,WSW,244,0.0,0.0,86,0.00,,---,0.00,VWS V13.01,2015-08-04 12:25:00,
2015-08-04 07:26:00,80.2,75.6,30.00,WSW,244,0.0,0.0,86,0.00,,---,0.00,VWS V13.01,2015-08-04 12:26:00,
2015-08-04 07:27:00,80.3,75.7,30.00,WSW,244,0.0,0.0,86,0.00,,---,0.00,VWS V13.01,2015-08-04 12:27:00,
2015-08-04 07:28:00,80.4,75.8,30.00,WSW,244,0.0,1.0,86,0.00,,---,0.00,VWS V13.01,2015-08-04 12:28:00,
2015-08-04 07:29:00,80.5,75.9,30.00,WSW,244,0.0,1.0,86,0.00,,---,0.00,VWS V13.01,2015-08-04 12:29:00,
2015-08-04 07:30:00,80.6,76.0,30.00,WSW,244,0.0,0.0,86,0.00,,---,0.00,VWS V13.01,2015-08-04 12:30:00,
2015-08-04 07:31:00,80.7,76.1,30.00,WSW,244,0.0,0.0,86,0.00,,---,0.00,VWS V13.01,2015-08-04 12:31:00,
2015-08-04 07:32:00,80.8,76.2,30.00,WSW,244,0.0,0.0,86,0.00,,---,0.00,VWS V13.01,2015-08-04 12:32:00,
2015-08-04 07:33:00,80.9,76.3,30.00,WSW,244,0.0,0.0,86,0.00,,---,0.00,VWS V13.01,2015-08-04 12:33:00,
2015-08-04 07:34:00,81.0,76.4,30.00,WSW,244,0.0,0.0,86,0.00,,---,0.00,VWS V13.01,2015-08-04 12:34:00,
2015-08-04 07:35:00,81.1,76.5,30.00,WSW,244,0.0,0.0,86,0.00,,---,0.00,VWS V13.01,2015-08-04 12:35:00,
2015-08-04 07:36:00,81.2,76.6,30.00,WSW,244,0.0,0.0,86,0.00,,---,0.00,VWS V13.01,2015-08-04 12:36:00,
2015-08-04 07:37:00,81.4,76.8,30.00,WSW,244,0.0,0.0,86,0.00,,---,0.00,VWS V13.01,2015-08-04 12:37:00,
2015-08-04 07:38:00,81.4,76.8,30.00,WSW,244,0.0,0.0,86,0.00,,---,0.00,VWS V13.01,2015-08-04 12:38:00,
2015-08-04 07:39:00,81.5,76.6,30.00,WSW,244,0.0,0.0,85,0.00,,---,0.00,VWS V13.01,2015-08-04 12:39:00,
2015-08-04 07:40:00,81.6,76.7,30.00,WSW,244,0.0,0.0,85,0.00,,---,0.00,VWS V13.01,2015-08-04 12:40:00,
2015-08-04 07:41:00,81.8,76.8,30.00,WSW,244,0.0,0.0,85,0.00,,---,0.00,VWS V13.01,2015-08-04 12:41:00,
2015-08-04 07:42:00,81.8,76.8,30.00,WSW,244,0.0,0.0,85,0.00,,---,0.00,VWS V13.01,2015-08-04 12:42:00,
2015-08-04 07:43:00,81.9,76.9,30.00,WSW,244,0.0,0.0,85,0.00,,---,0.00,VWS V13.01,2015-08-04 12:43:00,
2015-08-04 07:44:00,82.0,77.1,30.00,WSW,244,0.0,0.0,85,0.00,,---,0.00,VWS V13.01,2015-08-04 12:44:00,
2015-08-04 07:45:00,82.0,77.1,30.00,WSW,244,0.0,0.0,85,0.00,,---,0.00,VWS V13.01,2015-08-04 12:45:00,
2015-08-04 07:46:00,82.1,77.2,30.00,WSW,244,0.0,0.0,85,0.00,,---,0.00,VWS V13.01,2015-08-04 12:46:00,
2015-08-04 07:47:00,82.2,77.2,30.00,WSW,244,0.0,0.0,85,0.00,,---,0.00,VWS V13.01,2015-08-04 12:47:00,
2015-08-04 07:48:00,82.3,77.3,30.00,WSW,244,0.0,0.0,85,0.00,,---,0.00,VWS V13.01,2015-08-04 12:48:00,
2015-08-04 07:49:00,82.4,77.4,30.00,WSW,244,0.0,0.0,85,0.00,,---,0.00,VWS V13.01,2015-08-04 12:49:00,
2015-08-04 07:50:00,82.5,77.2,30.00,WSW,244,0.0,0.0,84,0.00,,---,0.00,VWS V13.01,2015-08-04 12:50:00,
2015-08-04 07:51:00,82.5,77.2,30.00,WSW,244,0.0,0.0,84,0.00,,---,0.00,VWS V13.01,2015-08-04 12:51:00,
2015-08-04 07:52:00,82.6,77.3,30.00,WSW,244,0.0,0.0,84,0.00,,---,0.00,VWS V13.01,2015-08-04 12:52:00,
2015-08-04 07:53:00,82.6,77.3,30.00,WSW,244,0.0,0.0,84,0.00,,---,0.00,VWS V13.01,2015-08-04 12:53:00,
2015-08-04 07:54:00,78.5,74.7,29.99,WSW,244,0.0,0.0,88,0.00,,---,0.00,VWS V13.01,2015-08-04 12:54:00,
2015-08-04 07:55:00,82.7,77.4,30.00,WSW,244,0.0,0.0,84,0.00,,---,0.00,VWS V13.01,2015-08-04 12:55:00,
2015-08-04 07:56:00,82.7,77.4,30.00,WSW,244,0.0,1.0,84,0.00,,---,0.00,VWS V13.01,2015-08-04 12:56:00,
2015-08-04 07:57:00,82.8,77.5,30.00,WSW,244,0.0,1.0,84,0.00,,---,0.00,VWS V13.01,2015-08-04 12:57:00,
2015-08-04 07:58:00,82.9,77.6,30.00,WSW,244,0.0,1.0,84,0.00,,---,0.00,VWS V13.01,2015-08-04 12:58:00,
2015-08-04 07:59:00,83.0,77.7,30.00,WSW,244,0.0,1.0,84,0.00,,---,0.00,VWS V13.01,2015-08-04 12:59:00,
2015-08-04 08:00:00,83.0,77.7,30.00,WSW,244,0.0,1.0,84,0.00,,---,0.00,VWS V13.01,2015-08-04 13:00:00,
2015-08-04 08:01:00,83.1,77.4,30.00,WSW,244,0.0,1.0,83,0.00,,---,0.00,VWS V13.01,2015-08-04 13:01:00,
2015-08-04 08:02:00,83.2,77.5,30.00,WSW,244,0.0,1.0,83,0.00,,---,0.00,VWS V13.01,2015-08-04 13:02:00,
2015-08-04 08:03:00,83.2,77.5,30.00,WSW,244,0.0,1.0,83,0.00,,---,0.00,VWS V13.01,2015-08-04 13:03:00,
2015-08-04 08:04:00,83.2,77.5,30.00,WSW,244,0.0,1.0,83,0.00,,---,0.00,VWS V13.01,2015-08-04 13:04:00,
2015-08-04 08:05:00,83.3,77.6,30.00,WSW,244,0.0,1.0,83,0.00,,---,0.00,VWS V13.01,2015-08-04 13:05:00,
2015-08-04 08:06:00,83.3,77.6,30.00,WSW,244,0.0,1.0,83,0.00,,---,0.00,VWS V13.01,2015-08-04 13:06:00,
2015-08-04 08:07:00,83.3,77.6,30.00,WSW,244,0.0,1.0,83,0.00,,---,0.00,VWS V13.01,2015-08-04 13:07:00,
2015-08-04 08:08:00,83.3,77.6,30.00,WSW,244,0.0,1.0,83,0.00,,---,0.00,VWS V13.01,2015-08-04 13:08:00,
2015-08-04 08:09:00,83.4,77.7,30.00,WSW,244,0.0,1.0,83,0.00,,---,0.00,VWS V13.01,2015-08-04 13:09:00,
2015-08-04 08:10:00,83.4,77.7,30.00,WSW,244,0.0,1.0,83,0.00,,---,0.00,VWS V13.01,2015-08-04 13:10:00,
2015-08-04 08:11:00,83.5,77.8,30.00,WSW,244,0.0,0.0,83,0.00,,---,0.00,VWS V13.01,2015-08-04 13:11:00,
2015-08-04 08:12:00,83.6,77.9,30.00,WSW,244,0.0,0.0,83,0.00,,---,0.00,VWS V13.01,2015-08-04 13:12:00,
2015-08-04 08:13:00,83.6,77.9,30.00,WSW,244,0.0,0.0,83,0.00,,---,0.00,VWS V13.01,2015-08-04 13:13:00,
2015-08-04 08:14:00,83.7,78.0,30.00,WSW,244,0.0,0.0,83,0.00,,---,0.00,VWS V13.01,2015-08-04 13:14:00,
2015-08-04 08:15:00,83.8,78.1,30.00,WSW,244,0.0,0.0,83,0.00,,---,0.00,VWS V13.01,2015-08-04 13:15:00,
2015-08-04 08:16:00,83.8,78.1,30.00,WSW,244,0.0,0.0,83,0.00,,---,0.00,VWS V13.01,2015-08-04 13:16:00,
2015-08-04 08:17:00,83.9,77.8,30.00,WSW,244,1.0,1.0,82,0.00,,---,0.00,VWS V13.01,2015-08-04 13:17:00,
2015-08-04 08:18:00,83.9,77.8,30.00,WSW,244,0.0,2.0,82,0.00,,---,0.00,VWS V13.01,2015-08-04 13:18:00,
2015-08-04 08:19:00,84.1,78.0,30.00,WSW,244,0.0,2.0,82,0.00,,---,0.00,VWS V13.01,2015-08-04 13:19:00,
2015-08-04 08:20:00,84.1,78.0,30.00,WSW,244,0.0,2.0,82,0.00,,---,0.00,VWS V13.01,2015-08-04 13:20:00,
2015-08-04 08:21:00,84.1,78.0,30.00,WSW,244,0.0,1.0,82,0.00,,---,0.00,VWS V13.01,2015-08-04 13:21:00,
2015-08-04 08:22:00,84.2,78.1,30.00,WSW,244,0.0,1.0,82,0.00,,---,0.00,VWS V13.01,2015-08-04 13:22:00,
2015-08-04 08:23:00,84.2,77.7,30.00,WSW,244,0.0,1.0,81,0.00,,---,0.00,VWS V13.01,2015-08-04 13:23:00,
2015-08-04 08:24:00,84.2,77.7,30.00,WSW,244,0.0,1.0,81,0.00,,---,0.00,VWS V13.01,2015-08-04 13:24:00,
2015-08-04 08:25:00,84.2,77.7,30.00,WSW,244,0.0,1.0,81,0.00,,---,0.00,VWS V13.01,2015-08-04 13:25:00,
2015-08-04 08:26:00,84.3,77.8,30.00,WSW,244,0.0,1.0,81,0.00,,---,0.00,VWS V13.01,2015-08-04 13:26:00,
2015-08-04 08:27:00,84.3,77.8,30.00,WSW,244,0.0,1.0,81,0.00,,---,0.00,VWS V13.01,2015-08-04 13:27:00,
2015-08-04 08:28:00,84.4,77.9,30.00,WSW,244,0.0,1.0,81,0.00,,---,0.00,VWS V13.01,2015-08-04 13:28:00,
2015-08-04 08:29:00,84.4,77.9,30.00,WSW,244,0.0,1.0,81,0.00,,---,0.00,VWS V13.01,2015-08-04 13:29:00,
2015-08-04 08:30:00,84.5,78.4,30.00,WSW,244,0.0,1.0,82,0.00,,---,0.00,VWS V13.01,2015-08-04 13:30:00,
2015-08-04 08:31:00,84.6,78.1,30.00,WSW,244,0.0,0.0,81,0.00,,---,0.00,VWS V13.01,2015-08-04 13:31:00,
2015-08-04 08:32:00,84.7,78.2,30.00,WSW,244,0.0,0.0,81,0.00,,---,0.00,VWS V13.01,2015-08-04 13:32:00,
2015-08-04 08:33:00,84.7,78.2,30.00,WSW,244,0.0,1.0,81,0.00,,---,0.00,VWS V13.01,2015-08-04 13:33:00,
2015-08-04 08:34:00,84.8,78.3,30.00,WSW,244,0.0,1.0,81,0.00,,---,0.00,VWS V13.01,2015-08-04 13:34:00,
2015-08-04 08:35:00,82.3,77.3,30.00,WSW,244,0.0,0.0,85,0.00,,---,0.00,VWS V13.01,2015-08-04 13:35:00,
2015-08-04 08:36:00,84.9,78.4,30.00,WSW,244,0.0,1.0,81,0.00,,---,0.00,VWS V13.01,2015-08-04 13:36:00,
2015-08-04 08:37:00,85.0,78.5,29.99,WSW,244,0.0,1.0,81,0.00,,---,0.00,VWS V13.01,2015-08-04 13:37:00,
2015-08-04 08:38:00,85.0,78.5,30.00,WSW,244,0.0,1.0,81,0.00,,---,0.00,VWS V13.01,2015-08-04 13:38:00,
2015-08-04 08:39:00,85.0,78.1,30.00,WSW,244,0.0,1.0,80,0.00,,---,0.00,VWS V13.01,2015-08-04 13:39:00,
2015-08-04 08:40:00,85.1,78.2,30.00,WSW,244,0.0,0.0,80,0.00,,---,0.00,VWS V13.01,2015-08-04 13:40:00,
2015-08-04 08:41:00,85.1,77.9,30.00,WSW,244,0.0,0.0,79,0.00,,---,0.00,VWS V13.01,2015-08-04 13:41:00,
2015-08-04 08:42:00,85.1,77.9,30.00,WSW,244,0.0,0.0,79,0.00,,---,0.00,VWS V13.01,2015-08-04 13:42:00,
2015-08-04 08:43:00,85.2,78.3,30.00,SW,221,0.0,4.0,80,0.00,,---,0.00,VWS V13.01,2015-08-04 13:43:00,
2015-08-04 08:44:00,85.3,78.4,30.00,WSW,240,0.0,4.0,80,0.00,,---,0.00,VWS V13.01,2015-08-04 13:44:00,
2015-08-04 08:45:00,82.9,77.6,30.00,WSW,244,0.0,1.0,84,0.00,,---,0.00,VWS V13.01,2015-08-04 13:45:00,
2015-08-04 08:46:00,85.5,78.2,30.00,WSW,238,0.0,4.0,79,0.00,,---,0.00,VWS V13.01,2015-08-04 13:46:00,
2015-08-04 08:47:00,85.5,78.2,30.00,WSW,238,0.0,4.0,79,0.00,,---,0.00,VWS V13.01,2015-08-04 13:47:00,
2015-08-04 08:48:00,85.6,78.3,30.00,WSW,238,0.0,4.0,79,0.00,,---,0.00,VWS V13.01,2015-08-04 13:48:00,
2015-08-04 08:49:00,85.6,78.3,30.00,WSW,238,0.0,4.0,79,0.00,,---,0.00,VWS V13.01,2015-08-04 13:49:00,
2015-08-04 08:50:00,85.7,78.4,30.00,WSW,238,0.0,4.0,79,0.00,,---,0.00,VWS V13.01,2015-08-04 13:50:00,
2015-08-04 08:51:00,85.7,78.4,30.00,WSW,238,0.0,1.0,79,0.00,,---,0.00,VWS V13.01,2015-08-04 13:51:00,
2015-08-04 08:52:00,85.7,78.4,30.00,WSW,238,0.0,1.0,79,0.00,,---,0.00,VWS V13.01,2015-08-04 13:52:00,
2015-08-04 08:53:00,85.9,78.6,30.00,WSW,238,0.0,1.0,79,0.00,,---,0.00,VWS V13.01,2015-08-04 13:53:00,
2015-08-04 08:54:00,85.9,78.6,30.00,WSW,238,0.0,1.0,79,0.00,,---,0.00,VWS V13.01,2015-08-04 13:54:00,
2015-08-04 08:55:00,86.0,78.7,30.00,WSW,238,0.0,1.0,79,0.00,,---,0.00,VWS V13.01,2015-08-04 13:55:00,
2015-08-04 08:56:00,86.1,78.8,30.00,WSW,238,0.0,1.0,79,0.00,,---,0.00,VWS V13.01,2015-08-04 13:56:00,
2015-08-04 08:57:00,86.1,78.4,30.00,WSW,238,0.0,1.0,78,0.00,,---,0.00,VWS V13.01,2015-08-04 13:57:00,
2015-08-04 08:58:00,86.2,78.5,30.00,WSW,238,0.0,1.0,78,0.00,,---,0.00,VWS V13.01,2015-08-04 13:58:00,
2015-08-04 08:59:00,86.2,78.2,30.00,WSW,238,0.0,1.0,77,0.00,,---,0.00,VWS V13.01,2015-08-04 13:59:00,
2015-08-04 09:00:00,86.2,78.2,30.00,WSW,238,0.0,1.0,77,0.00,,---,0.00,VWS V13.01,2015-08-04 14:00:00,
2015-08-04 09:01:00,86.2,78.2,30.00,WSW,238,0.0,1.0,77,0.00,,---,0.00,VWS V13.01,2015-08-04 14:01:00,
2015-08-04 09:02:00,86.3,78.2,30.00,WSW,238,0.0,1.0,77,0.00,,---,0.00,VWS V13.01,2015-08-04 14:02:00,
2015-08-04 09:03:00,86.4,78.3,30.00,WSW,238,0.0,1.0,77,0.00,,---,0.00,VWS V13.01,2015-08-04 14:03:00,
2015-08-04 09:04:00,86.4,78.3,30.00,WSW,238,0.0,1.0,77,0.00,,---,0.00,VWS V13.01,2015-08-04 14:04:00,
2015-08-04 09:05:00,86.5,78.4,30.00,WSW,238,0.0,1.0,77,0.00,,---,0.00,VWS V13.01,2015-08-04 14:05:00,
2015-08-04 09:06:00,86.6,78.5,30.00,WSW,238,0.0,1.0,77,0.00,,---,0.00,VWS V13.01,2015-08-04 14:06:00,
2015-08-04 09:07:00,86.7,78.6,30.00,WSW,238,0.0,1.0,77,0.00,,---,0.00,VWS V13.01,2015-08-04 14:07:00,
2015-08-04 09:08:00,86.7,78.6,30.00,WSW,238,0.0,1.0,77,0.00,,---,0.00,VWS V13.01,2015-08-04 14:08:00,
2015-08-04 09:09:00,86.7,78.2,30.00,WSW,238,0.0,1.0,76,0.00,,---,0.00,VWS V13.01,2015-08-04 14:09:00,
2015-08-04 09:10:00,86.7,78.2,30.00,WSW,238,0.0,1.0,76,0.00,,---,0.00,VWS V13.01,2015-08-04 14:10:00,
2015-08-04 09:11:00,86.7,77.8,30.00,WSW,238,0.0,0.0,75,0.00,,---,0.00,VWS V13.01,2015-08-04 14:11:00,
2015-08-04 09:12:00,86.7,77.8,30.00,WSW,238,0.0,0.0,75,0.00,,---,0.00,VWS V13.01,2015-08-04 14:12:00,
2015-08-04 09:13:00,86.7,77.8,30.00,WSW,238,0.0,0.0,75,0.00,,---,0.00,VWS V13.01,2015-08-04 14:13:00,
2015-08-04 09:14:00,86.8,77.9,30.01,WSW,238,0.0,0.0,75,0.00,,---,0.00,VWS V13.01,2015-08-04 14:14:00,
2015-08-04 09:15:00,86.8,78.3,30.00,WSW,238,0.0,0.0,76,0.00,,---,0.00,VWS V13.01,2015-08-04 14:15:00,
2015-08-04 09:16:00,86.9,78.0,30.00,WSW,238,0.0,0.0,75,0.00,,---,0.00,VWS V13.01,2015-08-04 14:16:00,
2015-08-04 09:17:00,86.9,78.0,30.00,WSW,238,0.0,0.0,75,0.00,,---,0.00,VWS V13.01,2015-08-04 14:17:00,
2015-08-04 09:18:00,87.0,78.1,30.00,WSW,238,0.0,0.0,75,0.00,,---,0.00,VWS V13.01,2015-08-04 14:18:00,
2015-08-04 09:19:00,87.0,78.1,30.00,WSW,238,0.0,0.0,75,0.00,,---,0.00,VWS V13.01,2015-08-04 14:19:00,
2015-08-04 09:20:00,87.0,78.1,30.00,WSW,238,0.0,0.0,75,0.00,,---,0.00,VWS V13.01,2015-08-04 14:20:00,
2015-08-04 09:21:00,87.0,78.1,30.00,WSW,238,0.0,0.0,75,0.00,,---,0.00,VWS V13.01,2015-08-04 14:21:00,
2015-08-04 09:22:00,87.1,78.2,30.00,WSW,238,0.0,0.0,75,0.00,,---,0.00,VWS V13.01,2015-08-04 14:22:00,
2015-08-04 09:23:00,87.1,78.2,30.00,WSW,238,0.0,0.0,75,0.00,,---,0.00,VWS V13.01,2015-08-04 14:23:00,
2015-08-04 09:24:00,87.2,78.7,30.00,WSW,238,0.0,0.0,76,0.00,,---,0.00,VWS V13.01,2015-08-04 14:24:00,
2015-08-04 09:25:00,87.4,78.9,30.00,WSW,238,0.0,1.0,76,0.00,,---,0.00,VWS V13.01,2015-08-04 14:25:00,
2015-08-04 09:26:00,87.5,79.0,30.00,WSW,238,0.0,1.0,76,0.00,,---,0.00,VWS V13.01,2015-08-04 14:26:00,
2015-08-04 09:27:00,87.5,79.0,30.00,WSW,238,0.0,1.0,76,0.00,,---,0.00,VWS V13.01,2015-08-04 14:27:00,
2015-08-04 09:28:00,87.6,78.7,30.00,WSW,238,0.0,1.0,75,0.00,,---,0.00,VWS V13.01,2015-08-04 14:28:00,
2015-08-04 09:29:00,87.5,78.2,30.00,WSW,238,0.0,1.0,74,0.00,,---,0.00,VWS V13.01,2015-08-04 14:29:00,
2015-08-04 09:30:00,87.6,77.9,30.00,WSW,238,0.0,1.0,73,0.00,,---,0.00,VWS V13.01,2015-08-04 14:30:00,
2015-08-04 09:31:00,87.7,78.4,30.00,SW,221,4.0,4.0,74,0.00,,---,0.00,VWS V13.01,2015-08-04 14:31:00,
2015-08-04 09:32:00,87.8,78.5,30.01,WSW,241,0.0,6.0,74,0.00,,---,0.00,VWS V13.01,2015-08-04 14:32:00,
2015-08-04 09:33:00,87.8,78.1,30.00,WSW,241,0.0,6.0,73,0.00,,---,0.00,VWS V13.01,2015-08-04 14:33:00,
2015-08-04 09:34:00,87.9,78.2,30.00,WSW,241,0.0,6.0,73,0.00,,---,0.00,VWS V13.01,2015-08-04 14:34:00,
2015-08-04 09:35:00,88.0,78.3,30.00,WSW,242,0.0,6.0,73,0.00,,---,0.00,VWS V13.01,2015-08-04 14:35:00,
2015-08-04 09:36:00,88.0,78.3,30.01,WSW,242,0.0,6.0,73,0.00,,---,0.00,VWS V13.01,2015-08-04 14:36:00,
2015-08-04 09:37:00,88.1,78.4,30.01,WSW,242,0.0,6.0,73,0.00,,---,0.00,VWS V13.01,2015-08-04 14:37:00,
2015-08-04 09:38:00,88.1,77.9,30.01,WSW,242,0.0,6.0,72,0.00,,---,0.00,VWS V13.01,2015-08-04 14:38:00,
2015-08-04 09:39:00,88.1,77.9,30.01,WSW,242,0.0,6.0,72,0.00,,---,0.00,VWS V13.01,2015-08-04 14:39:00,
2015-08-04 09:40:00,88.2,78.0,30.01,WSW,242,0.0,6.0,72,0.00,,---,0.00,VWS V13.01,2015-08-04 14:40:00,
2015-08-04 09:41:00,88.2,78.0,30.00,WSW,242,0.0,0.0,72,0.00,,---,0.00,VWS V13.01,2015-08-04 14:41:00,
2015-08-04 09:42:00,88.2,78.0,30.00,WSW,242,0.0,0.0,72,0.00,,---,0.00,VWS V13.01,2015-08-04 14:42:00,
2015-08-04 09:43:00,88.2,77.6,30.00,WSW,242,0.0,0.0,71,0.00,,---,0.00,VWS V13.01,2015-08-04 14:43:00,
2015-08-04 09:44:00,88.2,77.6,30.00,WSW,242,0.0,0.0,71,0.00,,---,0.00,VWS V13.01,2015-08-04 14:44:00,
2015-08-04 09:45:00,88.2,77.2,30.00,WSW,242,0.0,1.0,70,0.00,,---,0.00,VWS V13.01,2015-08-04 14:45:00,
2015-08-04 09:46:00,88.3,77.3,30.00,WSW,242,0.0,1.0,70,0.00,,---,0.00,VWS V13.01,2015-08-04 14:46:00,
2015-08-04 09:47:00,88.3,77.7,30.00,WSW,242,0.0,1.0,71,0.00,,---,0.00,VWS V13.01,2015-08-04 14:47:00,
2015-08-04 09:48:00,88.3,77.3,30.00,WSW,242,0.0,1.0,70,0.00,,---,0.00,VWS V13.01,2015-08-04 14:48:00,
2015-08-04 09:49:00,88.4,77.4,30.01,WSW,242,0.0,1.0,70,0.00,,---,0.00,VWS V13.01,2015-08-04 14:49:00,
2015-08-04 09:50:00,88.4,76.9,30.01,WSW,242,0.0,1.0,69,0.00,,---,0.00,VWS V13.01,2015-08-04 14:50:00,
2015-08-04 09:51:00,88.4,76.9,30.01,WSW,242,0.0,0.0,69,0.00,,---,0.00,VWS V13.01,2015-08-04 14:51:00,
2015-08-04 09:52:00,88.5,77.0,30.01,SW,234,0.0,1.0,69,0.00,,---,0.00,VWS V13.01,2015-08-04 14:52:00,
2015-08-04 09:53:00,88.6,77.1,30.01,SW,234,0.0,1.0,69,0.00,,---,0.00,VWS V13.01,2015-08-04 14:53:00,
2015-08-04 09:54:00,88.8,77.8,30.01,SW,234,0.0,1.0,70,0.00,,---,0.00,VWS V13.01,2015-08-04 14:54:00,
2015-08-04 09:55:00,88.9,77.4,30.01,West,259,1.0,1.0,69,0.00,,---,0.00,VWS V13.01,2015-08-04 14:55:00,
2015-08-04 09:56:00,89.0,77.5,30.01,WSW,254,0.0,4.0,69,0.00,,---,0.00,VWS V13.01,2015-08-04 14:56:00,
2015-08-04 09:57:00,89.1,77.6,30.01,WSW,252,0.0,4.0,69,0.00,,---,0.00,VWS V13.01,2015-08-04 14:57:00,
2015-08-04 09:58:00,89.2,77.3,30.01,WSW,252,1.0,4.0,68,0.00,,---,0.00,VWS V13.01,2015-08-04 14:58:00,
2015-08-04 09:59:00,89.4,78.3,30.01,SW,215,0.0,4.0,70,0.00,,---,0.00,VWS V13.01,2015-08-04 14:59:00,
2015-08-04 10:00:00,89.5,78.4,30.01,SW,215,0.0,4.0,70,0.00,,---,0.00,VWS V13.01,2015-08-04 15:00:00,
2015-08-04 10:01:00,89.6,78.1,30.01,SW,218,0.0,1.0,69,0.00,,---,0.00,VWS V13.01,2015-08-04 15:01:00,
2015-08-04 10:02:00,89.7,77.7,30.01,South,177,0.0,2.0,68,0.00,,---,0.00,VWS V13.01,2015-08-04 15:02:00,
2015-08-04 10:03:00,89.8,77.8,30.01,SW,221,0.0,2.0,68,0.00,,---,0.00,VWS V13.01,2015-08-04 15:03:00,
2015-08-04 10:04:00,89.9,77.5,30.01,SW,221,0.0,2.0,67,0.00,,---,0.00,VWS V13.01,2015-08-04 15:04:00,
2015-08-04 10:05:00,90.0,77.6,30.01,SW,215,0.0,2.0,67,0.00,,---,0.00,VWS V13.01,2015-08-04 15:05:00,
2015-08-04 10:06:00,90.0,77.1,30.01,SSW,197,0.0,2.0,66,0.00,,---,0.00,VWS V13.01,2015-08-04 15:06:00,
2015-08-04 10:07:00,90.0,76.7,30.01,SW,217,0.0,2.0,65,0.00,,---,0.00,VWS V13.01,2015-08-04 15:07:00,
2015-08-04 10:08:00,89.9,75.6,30.01,SW,219,0.0,2.0,63,0.00,,---,0.00,VWS V13.01,2015-08-04 15:08:00,
2015-08-04 10:09:00,89.9,75.6,30.01,SW,219,0.0,2.0,63,0.00,,---,0.00,VWS V13.01,2015-08-04 15:09:00,
2015-08-04 10:10:00,89.9,75.6,30.01,SW,219,0.0,2.0,63,0.00,,---,0.00,VWS V13.01,2015-08-04 15:10:00,
2015-08-04 10:11:00,89.9,75.6,30.01,SW,219,0.0,0.0,63,0.00,,---,0.00,VWS V13.01,2015-08-04 15:11:00,
2015-08-04 10:12:00,89.9,75.1,30.01,SW,219,0.0,0.0,62,0.00,,---,0.00,VWS V13.01,2015-08-04 15:12:00,
2015-08-04 10:13:00,89.9,75.6,30.01,SW,219,0.0,1.0,63,0.00,,---,0.00,VWS V13.01,2015-08-04 15:13:00,
2015-08-04 10:14:00,89.9,75.6,30.01,SW,219,0.0,1.0,63,0.00,,---,0.00,VWS V13.01,2015-08-04 15:14:00,
2015-08-04 10:15:00,89.9,75.1,30.01,SW,219,0.0,1.0,62,0.00,,---,0.00,VWS V13.01,2015-08-04 15:15:00,
2015-08-04 10:16:00,89.8,74.6,30.01,SW,219,0.0,1.0,61,0.00,,---,0.00,VWS V13.01,2015-08-04 15:16:00,
2015-08-04 10:17:00,89.8,74.6,30.01,SW,219,0.0,1.0,61,0.00,,---,0.00,VWS V13.01,2015-08-04 15:17:00,
2015-08-04 10:18:00,89.8,74.6,30.01,SW,219,0.0,1.0,61,0.00,,---,0.00,VWS V13.01,2015-08-04 15:18:00,
2015-08-04 10:19:00,89.8,75.1,30.01,SW,219,0.0,1.0,62,0.00,,---,0.00,VWS V13.01,2015-08-04 15:19:00,
2015-08-04 10:20:00,89.9,75.1,30.01,SW,219,0.0,1.0,62,0.00,,---,0.00,VWS V13.01,2015-08-04 15:20:00,
2015-08-04 10:21:00,89.9,75.6,30.01,West,265,0.0,4.0,63,0.00,,---,0.00,VWS V13.01,2015-08-04 15:21:00,
2015-08-04 10:22:00,90.0,75.2,30.01,West,265,0.0,4.0,62,0.00,,---,0.00,VWS V13.01,2015-08-04 15:22:00,
2015-08-04 10:23:00,90.1,74.8,30.01,West,265,0.0,4.0,61,0.00,,---,0.00,VWS V13.01,2015-08-04 15:23:00,
2015-08-04 10:24:00,90.1,74.8,30.01,West,265,0.0,4.0,61,0.00,,---,0.00,VWS V13.01,2015-08-04 15:24:00,
2015-08-04 10:25:00,90.2,74.9,30.01,West,265,0.0,4.0,61,0.00,,---,0.00,VWS V13.01,2015-08-04 15:25:00,
2015-08-04 10:26:00,90.2,74.9,30.01,West,265,0.0,4.0,61,0.00,,---,0.00,VWS V13.01,2015-08-04 15:26:00,
2015-08-04 10:27:00,90.3,75.0,30.01,West,265,0.0,4.0,61,0.00,,---,0.00,VWS V13.01,2015-08-04 15:27:00,
2015-08-04 10:28:00,90.3,75.5,30.01,West,265,0.0,4.0,62,0.00,,---,0.00,VWS V13.01,2015-08-04 15:28:00,
2015-08-04 10:29:00,90.4,75.6,30.01,WSW,249,0.0,4.0,62,0.00,,---,0.00,VWS V13.01,2015-08-04 15:29:00,
2015-08-04 10:30:00,90.4,75.6,30.00,WSW,249,0.0,4.0,62,0.00,,---,0.00,VWS V13.01,2015-08-04 15:30:00,
2015-08-04 10:31:00,90.3,75.0,30.01,WSW,249,0.0,0.0,61,0.00,,---,0.00,VWS V13.01,2015-08-04 15:31:00,
2015-08-04 10:32:00,90.3,75.0,30.01,WSW,249,0.0,0.0,61,0.00,,---,0.00,VWS V13.01,2015-08-04 15:32:00,
2015-08-04 10:33:00,90.4,75.1,30.00,WSW,249,0.0,0.0,61,0.00,,---,0.00,VWS V13.01,2015-08-04 15:33:00,
2015-08-04 10:34:00,90.4,75.1,30.00,WSW,249,0.0,0.0,61,0.00,,---,0.00,VWS V13.01,2015-08-04 15:34:00,
2015-08-04 10:35:00,90.4,74.6,30.01,WSW,249,0.0,0.0,60,0.00,,---,0.00,VWS V13.01,2015-08-04 15:35:00,
2015-08-04 10:36:00,90.4,74.6,30.01,WSW,249,0.0,0.0,60,0.00,,---,0.00,VWS V13.01,2015-08-04 15:36:00,
2015-08-04 10:37:00,90.3,75.0,30.01,WSW,249,0.0,0.0,61,0.00,,---,0.00,VWS V13.01,2015-08-04 15:37:00,
2015-08-04 10:38:00,90.3,74.5,30.01,WSW,249,0.0,0.0,60,0.00,,---,0.00,VWS V13.01,2015-08-04 15:38:00,
2015-08-04 10:39:00,90.3,74.5,30.01,WSW,249,0.0,0.0,60,0.00,,---,0.00,VWS V13.01,2015-08-04 15:39:00,
2015-08-04 10:40:00,90.3,74.5,30.01,WSW,249,0.0,0.0,60,0.00,,---,0.00,VWS V13.01,2015-08-04 15:40:00,
2015-08-04 10:41:00,90.4,75.1,30.01,WSW,249,0.0,1.0,61,0.00,,---,0.00,VWS V13.01,2015-08-04 15:41:00,
2015-08-04 10:42:00,90.5,75.2,30.01,SW,232,0.0,1.0,61,0.00,,---,0.00,VWS V13.01,2015-08-04 15:42:00,
2015-08-04 10:43:00,90.6,75.3,30.01,SW,232,0.0,1.0,61,0.00,,---,0.00,VWS V13.01,2015-08-04 15:43:00,
2015-08-04 10:44:00,90.6,75.3,30.01,SW,232,0.0,1.0,61,0.00,,---,0.00,VWS V13.01,2015-08-04 15:44:00,
2015-08-04 10:45:00,90.6,75.3,30.01,SW,232,0.0,1.0,61,0.00,,---,0.00,VWS V13.01,2015-08-04 15:45:00,
2015-08-04 10:46:00,90.6,75.8,30.01,SW,232,0.0,1.0,62,0.00,,---,0.00,VWS V13.01,2015-08-04 15:46:00,
2015-08-04 10:47:00,90.6,75.3,30.01,SW,232,0.0,1.0,61,0.00,,---,0.00,VWS V13.01,2015-08-04 15:47:00,
2015-08-04 10:48:00,90.7,75.9,30.01,SW,232,0.0,1.0,62,0.00,,---,0.00,VWS V13.01,2015-08-04 15:48:00,
2015-08-04 10:49:00,90.8,76.5,30.01,SW,232,0.0,1.0,63,0.00,,---,0.00,VWS V13.01,2015-08-04 15:49:00,
2015-08-04 10:50:00,90.9,76.1,30.01,SW,232,0.0,1.0,62,0.00,,---,0.00,VWS V13.01,2015-08-04 15:50:00,
2015-08-04 10:51:00,90.9,76.1,30.01,SW,232,0.0,0.0,62,0.00,,---,0.00,VWS V13.01,2015-08-04 15:51:00,
2015-08-04 10:52:00,90.9,75.6,30.01,SW,232,0.0,0.0,61,0.00,,---,0.00,VWS V13.01,2015-08-04 15:52:00,
2015-08-04 10:53:00,91.0,75.7,30.01,SW,235,0.0,1.0,61,0.00,,---,0.00,VWS V13.01,2015-08-04 15:53:00,
2015-08-04 10:54:00,91.0,76.2,30.01,SW,234,0.0,1.0,62,0.00,,---,0.00,VWS V13.01,2015-08-04 15:54:00,
2015-08-04 10:55:00,91.1,76.3,30.01,SW,234,0.0,1.0,62,0.00,,---,0.00,VWS V13.01,2015-08-04 15:55:00,
2015-08-04 10:56:00,91.2,76.4,30.01,SW,234,0.0,1.0,62,0.00,,---,0.00,VWS V13.01,2015-08-04 15:56:00,
2015-08-04 10:57:00,91.3,76.9,30.01,SW,234,0.0,1.0,63,0.00,,---,0.00,VWS V13.01,2015-08-04 15:57:00,
2015-08-04 10:58:00,91.6,78.6,30.01,SW,234,0.0,1.0,66,0.00,,---,0.00,VWS V13.01,2015-08-04 15:58:00,
2015-08-04 10:59:00,91.7,77.3,30.01,SW,234,0.0,1.0,63,0.00,,---,0.00,VWS V13.01,2015-08-04 15:59:00,
2015-08-04 11:00:00,91.7,76.8,30.01,SW,234,0.0,1.0,62,0.00,,---,0.00,VWS V13.01,2015-08-04 16:00:00,
2015-08-04 11:01:00,89.9,75.6,30.01,SW,219,0.0,1.0,63,0.00,,---,0.00,VWS V13.01,2015-08-04 16:01:00,
2015-08-04 11:02:00,91.7,76.3,30.01,SW,234,0.0,0.0,61,0.00,,---,0.00,VWS V13.01,2015-08-04 16:02:00,
2015-08-04 11:03:00,91.7,75.8,30.00,SW,234,0.0,1.0,60,0.00,,---,0.00,VWS V13.01,2015-08-04 16:03:00,
2015-08-04 11:04:00,91.7,75.3,30.01,SW,234,0.0,1.0,59,0.00,,---,0.00,VWS V13.01,2015-08-04 16:04:00,
2015-08-04 11:05:00,91.6,75.2,30.01,SW,234,0.0,1.0,59,0.00,,---,0.00,VWS V13.01,2015-08-04 16:05:00,
2015-08-04 11:06:00,91.6,75.2,30.01,SW,234,0.0,1.0,59,0.00,,---,0.00,VWS V13.01,2015-08-04 16:06:00,
2015-08-04 11:07:00,91.7,75.8,30.01,SW,234,0.0,1.0,60,0.00,,---,0.00,VWS V13.01,2015-08-04 16:07:00,
2015-08-04 11:08:00,91.8,77.4,30.01,SW,234,0.0,1.0,63,0.00,,---,0.00,VWS V13.01,2015-08-04 16:08:00,
2015-08-04 11:09:00,91.9,77.0,30.01,SW,234,0.0,1.0,62,0.00,,---,0.00,VWS V13.01,2015-08-04 16:09:00,
2015-08-04 11:10:00,91.9,77.0,30.01,SW,234,0.0,1.0,62,0.00,,---,0.00,VWS V13.01,2015-08-04 16:10:00,
2015-08-04 11:11:00,92.0,76.6,30.01,SW,234,0.0,0.0,61,0.00,,---,0.00,VWS V13.01,2015-08-04 16:11:00,
2015-08-04 11:12:00,92.0,76.6,30.01,SW,234,0.0,0.0,61,0.00,,---,0.00,VWS V13.01,2015-08-04 16:12:00,
2015-08-04 11:13:00,92.0,76.6,30.01,SW,234,0.0,0.0,61,0.00,,---,0.00,VWS V13.01,2015-08-04 16:13:00,
2015-08-04 11:14:00,92.0,76.6,30.01,SW,234,0.0,0.0,61,0.00,,---,0.00,VWS V13.01,2015-08-04 16:14:00,
2015-08-04 11:15:00,92.0,76.6,30.01,SW,234,0.0,0.0,61,0.00,,---,0.00,VWS V13.01,2015-08-04 16:15:00,
2015-08-04 11:16:00,92.0,76.1,30.01,SW,234,0.0,0.0,60,0.00,,---,0.00,VWS V13.01,2015-08-04 16:16:00,
2015-08-04 11:17:00,92.1,76.7,30.00,SW,234,0.0,0.0,61,0.00,,---,0.00,VWS V13.01,2015-08-04 16:17:00,
2015-08-04 11:18:00,92.2,76.8,30.01,SW,234,0.0,0.0,61,0.00,,---,0.00,VWS V13.01,2015-08-04 16:18:00,
2015-08-04 11:19:00,92.2,76.8,30.01,SW,234,0.0,0.0,61,0.00,,---,0.00,VWS V13.01,2015-08-04 16:19:00,
2015-08-04 11:20:00,92.3,76.9,30.01,SW,234,0.0,1.0,61,0.00,,---,0.00,VWS V13.01,2015-08-04 16:20:00,
2015-08-04 11:21:00,92.3,76.9,30.01,SW,234,0.0,0.0,61,0.00,,---,0.00,VWS V13.01,2015-08-04 16:21:00,
2015-08-04 11:22:00,92.4,76.5,30.01,SW,234,0.0,0.0,60,0.00,,---,0.00,VWS V13.01,2015-08-04 16:22:00,
2015-08-04 11:23:00,92.4,76.5,30.01,SW,234,0.0,0.0,60,0.00,,---,0.00,VWS V13.01,2015-08-04 16:23:00,
2015-08-04 11:24:00,92.4,77.0,30.00,SSW,204,0.0,5.0,61,0.00,,---,0.00,VWS V13.01,2015-08-04 16:24:00,
2015-08-04 11:25:00,92.6,78.2,30.01,South,183,3.0,5.0,63,0.00,,---,0.00,VWS V13.01,2015-08-04 16:25:00,
2015-08-04 11:26:00,92.7,78.3,30.01,South,183,0.0,5.0,63,0.00,,---,0.00,VWS V13.01,2015-08-04 16:26:00,
2015-08-04 11:27:00,92.7,77.8,30.00,South,184,0.0,5.0,62,0.00,,---,0.00,VWS V13.01,2015-08-04 16:27:00,
2015-08-04 11:28:00,92.7,77.3,30.00,South,184,0.0,5.0,61,0.00,,---,0.00,VWS V13.01,2015-08-04 16:28:00,
2015-08-04 11:29:00,92.7,76.8,30.00,South,184,0.0,5.0,60,0.00,,---,0.00,VWS V13.01,2015-08-04 16:29:00,
2015-08-04 11:30:00,92.6,76.7,30.00,South,184,0.0,5.0,60,0.00,,---,0.00,VWS V13.01,2015-08-04 16:30:00,
2015-08-04 11:31:00,92.7,76.8,30.00,SSW,210,0.0,2.0,60,0.00,,---,0.00,VWS V13.01,2015-08-04 16:31:00,
2015-08-04 11:32:00,92.7,76.3,30.00,SSW,210,0.0,2.0,59,0.00,,---,0.00,VWS V13.01,2015-08-04 16:32:00,
2015-08-04 11:33:00,92.7,76.8,30.00,SSW,210,0.0,2.0,60,0.00,,---,0.00,VWS V13.01,2015-08-04 16:33:00,
2015-08-04 11:34:00,92.7,76.8,30.00,SW,232,0.0,4.0,60,0.00,,---,0.00,VWS V13.01,2015-08-04 16:34:00,
2015-08-04 11:35:00,92.7,76.8,30.00,SW,232,0.0,4.0,60,0.00,,---,0.00,VWS V13.01,2015-08-04 16:35:00,
2015-08-04 11:36:00,92.7,76.8,30.00,SW,232,0.0,4.0,60,0.00,,---,0.00,VWS V13.01,2015-08-04 16:36:00,
2015-08-04 11:37:00,92.8,76.9,30.00,SW,232,0.0,4.0,60,0.00,,---,0.00,VWS V13.01,2015-08-04 16:37:00,
2015-08-04 11:38:00,92.8,76.9,30.00,SW,232,0.0,4.0,60,0.00,,---,0.00,VWS V13.01,2015-08-04 16:38:00,
2015-08-04 11:39:00,92.8,77.4,30.00,SW,232,0.0,4.0,61,0.00,,---,0.00,VWS V13.01,2015-08-04 16:39:00,
2015-08-04 11:40:00,92.8,76.9,30.00,SW,232,0.0,4.0,60,0.00,,---,0.00,VWS V13.01,2015-08-04 16:40:00,
2015-08-04 11:41:00,92.9,77.0,30.00,SW,231,0.0,1.0,60,0.00,,---,0.00,VWS V13.01,2015-08-04 16:41:00,
2015-08-04 11:42:00,92.9,77.0,30.00,SW,231,0.0,1.0,60,0.00,,---,0.00,VWS V13.01,2015-08-04 16:42:00,
2015-08-04 11:43:00,92.9,77.0,30.00,SW,231,0.0,1.0,60,0.00,,---,0.00,VWS V13.01,2015-08-04 16:43:00,
2015-08-04 11:44:00,92.9,77.5,30.00,South,174,0.0,1.0,61,0.00,,---,0.00,VWS V13.01,2015-08-04 16:44:00,
2015-08-04 11:45:00,93.0,77.1,30.00,South,174,0.0,1.0,60,0.00,,---,0.00,VWS V13.01,2015-08-04 16:45:00,
2015-08-04 11:46:00,93.1,77.2,30.00,SW,227,0.0,4.0,60,0.00,,---,0.00,VWS V13.01,2015-08-04 16:46:00,
2015-08-04 11:47:00,93.2,76.8,30.00,SW,227,0.0,4.0,59,0.00,,---,0.00,VWS V13.01,2015-08-04 16:47:00,
2015-08-04 11:48:00,93.2,76.2,30.00,SW,227,0.0,4.0,58,0.00,,---,0.00,VWS V13.01,2015-08-04 16:48:00,
2015-08-04 11:49:00,93.3,77.3,30.00,SW,227,0.0,4.0,60,0.00,,---,0.00,VWS V13.01,2015-08-04 16:49:00,
2015-08-04 11:50:00,93.4,77.9,30.00,SW,227,0.0,0.0,61,0.00,,---,0.00,VWS V13.01,2015-08-04 16:50:00,
2015-08-04 11:51:00,91.7,75.8,30.01,SW,234,0.0,1.0,60,0.00,,---,0.00,VWS V13.01,2015-08-04 16:51:00,
2015-08-04 11:52:00,93.6,76.6,30.00,SW,227,0.0,0.0,58,0.00,,---,0.00,VWS V13.01,2015-08-04 16:52:00,
2015-08-04 11:53:00,93.6,77.1,30.00,SW,227,0.0,0.0,59,0.00,,---,0.00,VWS V13.01,2015-08-04 16:53:00,
2015-08-04 11:54:00,93.6,75.6,30.00,SW,227,0.0,0.0,56,0.00,,---,0.00,VWS V13.01,2015-08-04 16:54:00,
2015-08-04 11:55:00,93.7,75.6,30.00,SW,227,0.0,0.0,56,0.00,,---,0.00,VWS V13.01,2015-08-04 16:55:00,
2015-08-04 11:56:00,93.7,76.2,30.00,SW,227,0.0,1.0,57,0.00,,---,0.00,VWS V13.01,2015-08-04 16:56:00,
2015-08-04 11:57:00,93.8,76.8,30.00,SW,227,0.0,1.0,58,0.00,,---,0.00,VWS V13.01,2015-08-04 16:57:00,
2015-08-04 11:58:00,93.9,76.9,30.00,SW,227,0.0,1.0,58,0.00,,---,0.00,VWS V13.01,2015-08-04 16:58:00,
2015-08-04 11:59:00,93.9,76.9,30.00,SW,227,0.0,1.0,58,0.00,,---,0.00,VWS V13.01,2015-08-04 16:59:00,
2015-08-04 12:00:00,94.0,77.0,30.00,SW,227,0.0,0.0,58,0.00,,---,0.00,VWS V13.01,2015-08-04 17:00:00,
2015-08-04 12:01:00,94.0,76.5,30.00,SW,227,0.0,0.0,57,0.00,,---,0.00,VWS V13.01,2015-08-04 17:01:00,
2015-08-04 12:02:00,94.0,75.9,30.00,SW,227,0.0,0.0,56,0.00,,---,0.00,VWS V13.01,2015-08-04 17:02:00,
2015-08-04 12:03:00,94.0,75.9,30.00,SW,227,0.0,0.0,56,0.00,,---,0.00,VWS V13.01,2015-08-04 17:03:00,
2015-08-04 12:04:00,94.0,75.9,30.00,SW,227,0.0,0.0,56,0.00,,---,0.00,VWS V13.01,2015-08-04 17:04:00,
2015-08-04 12:05:00,94.0,75.9,30.00,SW,227,0.0,0.0,56,0.00,,---,0.00,VWS V13.01,2015-08-04 17:05:00,
2015-08-04 12:06:00,94.0,75.4,30.00,SW,227,0.0,0.0,55,0.00,,---,0.00,VWS V13.01,2015-08-04 17:06:00,
2015-08-04 12:07:00,93.9,75.3,30.00,SW,227,0.0,0.0,55,0.00,,---,0.00,VWS V13.01,2015-08-04 17:07:00,
2015-08-04 12:08:00,93.9,75.3,30.00,SSW,195,0.0,4.0,55,0.00,,---,0.00,VWS V13.01,2015-08-04 17:08:00,
2015-08-04 12:09:00,94.0,77.0,30.00,SSW,209,0.0,4.0,58,0.00,,---,0.00,VWS V13.01,2015-08-04 17:09:00,
2015-08-04 12:10:00,94.0,75.4,30.00,SSW,212,0.0,4.0,55,0.00,,---,0.00,VWS V13.01,2015-08-04 17:10:00,
2015-08-04 12:11:00,94.0,75.4,30.00,SSW,212,0.0,0.0,55,0.00,,---,0.00,VWS V13.01,2015-08-04 17:11:00,
2015-08-04 12:12:00,94.0,75.4,30.00,SSW,212,0.0,0.0,55,0.00,,---,0.00,VWS V13.01,2015-08-04 17:12:00,
2015-08-04 12:13:00,94.1,75.5,29.99,SSW,212,0.0,0.0,55,0.00,,---,0.00,VWS V13.01,2015-08-04 17:13:00,
2015-08-04 12:14:00,94.1,75.5,29.99,SSW,212,0.0,0.0,55,0.00,,---,0.00,VWS V13.01,2015-08-04 17:14:00,
2015-08-04 12:15:00,94.0,74.8,29.99,SSW,212,0.0,0.0,54,0.00,,---,0.00,VWS V13.01,2015-08-04 17:15:00,
2015-08-04 12:16:00,94.0,74.8,29.99,SSW,212,0.0,0.0,54,0.00,,---,0.00,VWS V13.01,2015-08-04 17:16:00,
2015-08-04 12:17:00,94.0,74.8,29.99,SSW,212,0.0,1.0,54,0.00,,---,0.00,VWS V13.01,2015-08-04 17:17:00,
2015-08-04 12:18:00,94.0,74.8,29.99,SSW,212,0.0,1.0,54,0.00,,---,0.00,VWS V13.01,2015-08-04 17:18:00,
2015-08-04 12:19:00,93.9,74.7,29.99,SSW,212,0.0,1.0,54,0.00,,---,0.00,VWS V13.01,2015-08-04 17:19:00,
2015-08-04 12:20:00,94.0,74.8,29.99,SSW,212,0.0,1.0,54,0.00,,---,0.00,VWS V13.01,2015-08-04 17:20:00,
2015-08-04 12:21:00,94.0,75.4,29.99,SSW,212,0.0,0.0,55,0.00,,---,0.00,VWS V13.01,2015-08-04 17:21:00,
2015-08-04 12:22:00,94.1,76.0,29.99,SSW,212,0.0,0.0,56,0.00,,---,0.00,VWS V13.01,2015-08-04 17:22:00,
2015-08-04 12:23:00,94.2,75.6,29.99,SSW,212,0.0,0.0,55,0.00,,---,0.00,VWS V13.01,2015-08-04 17:23:00,
2015-08-04 12:24:00,94.3,75.7,29.99,SSW,212,0.0,0.0,55,0.00,,---,0.00,VWS V13.01,2015-08-04 17:24:00,
2015-08-04 12:25:00,94.3,75.7,29.99,SSW,212,0.0,0.0,55,0.00,,---,0.00,VWS V13.01,2015-08-04 17:25:00,
2015-08-04 12:26:00,94.3,75.1,29.99,SSW,213,0.0,1.0,54,0.00,,---,0.00,VWS V13.01,2015-08-04 17:26:00,
2015-08-04 12:27:00,94.4,74.6,29.99,SSW,213,0.0,1.0,53,0.00,,---,0.00,VWS V13.01,2015-08-04 17:27:00,
2015-08-04 12:28:00,94.4,74.6,29.99,SSW,213,0.0,1.0,53,0.00,,---,0.00,VWS V13.01,2015-08-04 17:28:00,
2015-08-04 12:29:00,94.4,74.1,29.99,SSW,213,0.0,1.0,52,0.00,,---,0.00,VWS V13.01,2015-08-04 17:29:00,
2015-08-04 12:30:00,94.3,74.6,29.99,SSW,213,0.0,1.0,53,0.00,,---,0.00,VWS V13.01,2015-08-04 17:30:00,
2015-08-04 12:31:00,94.4,74.6,29.99,SSW,213,0.0,0.0,53,0.00,,---,0.00,VWS V13.01,2015-08-04 17:31:00,
2015-08-04 12:32:00,94.3,74.6,29.99,SSW,213,0.0,0.0,53,0.00,,---,0.00,VWS V13.01,2015-08-04 17:32:00,
2015-08-04 12:33:00,94.4,74.6,29.99,SSW,213,0.0,0.0,53,0.00,,---,0.00,VWS V13.01,2015-08-04 17:33:00,
2015-08-04 12:34:00,94.4,74.6,29.99,SSW,213,0.0,0.0,53,0.00,,---,0.00,VWS V13.01,2015-08-04 17:34:00,
2015-08-04 12:35:00,94.4,74.6,29.99,SSW,213,0.0,0.0,53,0.00,,---,0.00,VWS V13.01,2015-08-04 17:35:00,
2015-08-04 12:36:00,94.4,74.6,29.99,SSW,213,0.0,1.0,53,0.00,,---,0.00,VWS V13.01,2015-08-04 17:36:00,
2015-08-04 12:37:00,94.5,74.7,29.99,SSW,213,0.0,1.0,53,0.00,,---,0.00,VWS V13.01,2015-08-04 17:37:00,
2015-08-04 12:38:00,94.5,74.2,29.99,SSW,213,0.0,1.0,52,0.00,,---,0.00,VWS V13.01,2015-08-04 17:38:00,
2015-08-04 12:39:00,94.6,74.3,29.99,SSW,213,0.0,1.0,52,0.00,,---,0.00,VWS V13.01,2015-08-04 17:39:00,
2015-08-04 12:40:00,94.7,75.5,29.99,SSW,213,0.0,1.0,54,0.00,,---,0.00,VWS V13.01,2015-08-04 17:40:00,
2015-08-04 12:41:00,94.9,76.2,29.99,North,360,0.0,1.0,55,0.00,,---,0.00,VWS V13.01,2015-08-04 17:41:00,
2015-08-04 12:42:00,94.9,74.5,29.98,North,360,0.0,1.0,52,0.00,,---,0.00,VWS V13.01,2015-08-04 17:42:00,
2015-08-04 12:43:00,95.0,74.6,29.99,North,360,0.0,1.0,52,0.00,,---,0.00,VWS V13.01,2015-08-04 17:43:00,
2015-08-04 13:25:00,94.5,74.2,29.99,SSW,213,0.0,1.0,52,0.00,,---,0.00,VWS V13.01,2015-08-04 18:25:00,